ETH3716 HAAB-EBLG
Flight info
| Callsign | ETH3716 |
|---|---|
| Flight time | 6h 52m |
| Altitude | 30000 |
| Route | LABLA1B LABLA UT124 ALRAP/N0511F290 DCT KSL DCT PSD/N0506F300 P751 KUNKI/N0491F320 P751 METRU UM872 PLH DCT YNN UL611 TUMBO DCT PAPIZ DCT LUMAR DCT RIVAM DCT UTAME DCT LISKO DCT BUSER DCT AGOMO DCT SUMIR DCT SOTOV P66 KPT L608 TEDGO DCT IDOVI Z104 GESLO |
| Aircraft | B77L/H-SDE1E2E3FGHIJ2J3J4J5M1RWXY/LB1D1 |
Departure
| Time | 2026-04-23 07:43 |
|---|---|
| Airport | Addis Ababa Bole International Airport (HAAB) |
Arrival
| Time | 2026-04-23 14:35 |
|---|---|
| Airport | Liège Airport (EBLG) |
| Time | Latitude | Longitude | Altitude | Speed | Heading |
|---|---|---|---|---|---|
| 2026-04-23 07:12 | 8.97878 | 38.78336 | 7673 ft | 0 kts | 344° |
| 2026-04-23 07:34 | 8.97857 | 38.78343 | 7674 ft | 4 kts | 342° |
| 2026-04-23 07:34 | 8.97823 | 38.78354 | 7674 ft | 4 kts | 342° |
| 2026-04-23 07:35 | 8.97801 | 38.78362 | 7673 ft | 4 kts | 319° |
| 2026-04-23 07:35 | 8.97793 | 38.78381 | 7677 ft | 4 kts | 253° |
| 2026-04-23 07:35 | 8.97799 | 38.78398 | 7672 ft | 3 kts | 252° |
| 2026-04-23 07:35 | 8.97800 | 38.78401 | 7673 ft | 0 kts | 252° |
| 2026-04-23 07:38 | 8.97796 | 38.78389 | 7669 ft | 4 kts | 252° |
| 2026-04-23 07:38 | 8.97782 | 38.78345 | 7668 ft | 9 kts | 252° |
| 2026-04-23 07:39 | 8.97759 | 38.78269 | 7655 ft | 13 kts | 253° |
| 2026-04-23 07:39 | 8.97728 | 38.78168 | 7661 ft | 15 kts | 250° |
| 2026-04-23 07:39 | 8.97643 | 38.78133 | 7661 ft | 15 kts | 166° |
| 2026-04-23 07:39 | 8.97543 | 38.78163 | 7662 ft | 15 kts | 161° |
| 2026-04-23 07:40 | 8.97523 | 38.78170 | 7662 ft | 0 kts | 161° |
| 2026-04-23 07:40 | 8.97521 | 38.78171 | 7663 ft | 1 kts | 161° |
| 2026-04-23 07:40 | 8.97499 | 38.78178 | 7664 ft | 5 kts | 161° |
| 2026-04-23 07:41 | 8.97456 | 38.78201 | 7662 ft | 8 kts | 142° |
| 2026-04-23 07:41 | 8.97416 | 38.78243 | 7666 ft | 8 kts | 126° |
| 2026-04-23 07:41 | 8.97414 | 38.78293 | 7666 ft | 0 kts | 76° |
| 2026-04-23 07:42 | 8.97424 | 38.78332 | 7667 ft | 21 kts | 76° |
| 2026-04-23 07:42 | 8.97537 | 38.78716 | 7664 ft | 95 kts | 73° |
| 2026-04-23 07:42 | 8.97794 | 38.79597 | 7668 ft | 165 kts | 73° |
| 2026-04-23 07:42 | 8.98185 | 38.80930 | 7666 ft | 223 kts | 74° |
| 2026-04-23 07:43 | 8.98608 | 38.82469 | 8304 ft | 218 kts | 76° |
| 2026-04-23 07:43 | 8.99005 | 38.83911 | 9269 ft | 215 kts | 76° |
| 2026-04-23 07:43 | 8.99412 | 38.85395 | 9735 ft | 226 kts | 75° |
| 2026-04-23 07:43 | 8.99844 | 38.86961 | 10087 ft | 236 kts | 75° |
| 2026-04-23 07:44 | 9.00298 | 38.88592 | 10459 ft | 242 kts | 75° |
| 2026-04-23 07:44 | 9.00537 | 38.90265 | 10857 ft | 244 kts | 100° |
| 2026-04-23 07:44 | 8.99812 | 38.91817 | 11234 ft | 251 kts | 132° |
| 2026-04-23 07:44 | 8.98374 | 38.92811 | 11758 ft | 256 kts | 158° |
| 2026-04-23 07:45 | 8.96598 | 38.93069 | 12247 ft | 263 kts | 184° |
| 2026-04-23 07:45 | 8.94856 | 38.92477 | 12691 ft | 271 kts | 212° |
| 2026-04-23 07:45 | 8.93536 | 38.91104 | 13148 ft | 275 kts | 238° |
| 2026-04-23 07:45 | 8.92610 | 38.89388 | 13614 ft | 279 kts | 242° |
| 2026-04-23 07:46 | 8.91688 | 38.87639 | 14074 ft | 283 kts | 241° |
| 2026-04-23 07:46 | 8.90862 | 38.85833 | 14542 ft | 282 kts | 257° |
| 2026-04-23 07:46 | 8.90815 | 38.83868 | 14934 ft | 284 kts | 285° |
| 2026-04-23 07:46 | 8.91648 | 38.82021 | 15032 ft | 298 kts | 309° |
| 2026-04-23 07:47 | 8.92997 | 38.80362 | 15123 ft | 313 kts | 311° |
| 2026-04-23 07:47 | 8.94436 | 38.78631 | 15294 ft | 331 kts | 311° |
| 2026-04-23 07:47 | 8.95961 | 38.76792 | 15441 ft | 351 kts | 311° |
| 2026-04-23 07:47 | 8.97569 | 38.74844 | 15576 ft | 370 kts | 310° |
| 2026-04-23 07:48 | 8.99256 | 38.72793 | 15738 ft | 389 kts | 310° |
| 2026-04-23 07:48 | 9.01020 | 38.70637 | 15901 ft | 406 kts | 310° |
| 2026-04-23 07:48 | 9.02844 | 38.68404 | 16222 ft | 417 kts | 310° |
| 2026-04-23 07:48 | 9.04708 | 38.66123 | 16658 ft | 422 kts | 311° |
| 2026-04-23 07:49 | 9.06831 | 38.64069 | 16989 ft | 426 kts | 328° |
| 2026-04-23 07:49 | 9.09482 | 38.62780 | 17445 ft | 424 kts | 338° |
| 2026-04-23 07:49 | 9.12212 | 38.61589 | 17882 ft | 430 kts | 337° |
| 2026-04-23 07:49 | 9.14947 | 38.60326 | 18481 ft | 433 kts | 336° |
| 2026-04-23 07:50 | 9.17675 | 38.59036 | 19005 ft | 435 kts | 336° |
| 2026-04-23 07:50 | 9.20417 | 38.57728 | 19512 ft | 437 kts | 335° |
| 2026-04-23 07:50 | 9.23177 | 38.56407 | 19947 ft | 441 kts | 335° |
| 2026-04-23 07:50 | 9.25966 | 38.55072 | 20359 ft | 446 kts | 335° |
| 2026-04-23 07:51 | 9.28741 | 38.53746 | 20788 ft | 448 kts | 335° |
| 2026-04-23 07:51 | 9.31569 | 38.52395 | 21275 ft | 451 kts | 335° |
| 2026-04-23 07:51 | 9.34412 | 38.51038 | 21729 ft | 453 kts | 335° |
| 2026-04-23 07:51 | 9.37281 | 38.49669 | 22102 ft | 458 kts | 335° |
| 2026-04-23 07:52 | 9.40172 | 38.48290 | 22472 ft | 462 kts | 335° |
| 2026-04-23 07:52 | 9.43089 | 38.46898 | 22909 ft | 464 kts | 335° |
| 2026-04-23 07:52 | 9.46016 | 38.45501 | 23354 ft | 466 kts | 335° |
| 2026-04-23 07:52 | 9.48954 | 38.44100 | 23757 ft | 469 kts | 334° |
| 2026-04-23 07:53 | 9.51915 | 38.42686 | 24083 ft | 471 kts | 334° |
| 2026-04-23 07:53 | 9.54882 | 38.41269 | 24464 ft | 472 kts | 334° |
| 2026-04-23 07:53 | 9.57853 | 38.39849 | 24865 ft | 473 kts | 334° |
| 2026-04-23 07:53 | 9.60831 | 38.38426 | 25243 ft | 474 kts | 334° |
| 2026-04-23 07:54 | 9.63817 | 38.36999 | 25568 ft | 475 kts | 334° |
| 2026-04-23 07:54 | 9.66811 | 38.35568 | 25907 ft | 477 kts | 334° |
| 2026-04-23 07:54 | 9.69820 | 38.34130 | 26248 ft | 479 kts | 334° |
| 2026-04-23 07:54 | 9.72837 | 38.32688 | 26577 ft | 481 kts | 334° |
| 2026-04-23 07:55 | 9.75867 | 38.31238 | 26887 ft | 482 kts | 334° |
| 2026-04-23 07:55 | 9.78907 | 38.29785 | 27205 ft | 484 kts | 334° |
| 2026-04-23 07:55 | 9.81959 | 38.28325 | 27549 ft | 485 kts | 334° |
| 2026-04-23 07:55 | 9.85006 | 38.26866 | 27946 ft | 485 kts | 334° |
| 2026-04-23 07:56 | 9.88064 | 38.25402 | 28214 ft | 487 kts | 334° |
| 2026-04-23 07:56 | 9.91142 | 38.23928 | 28458 ft | 490 kts | 334° |
| 2026-04-23 07:56 | 9.94235 | 38.22448 | 28721 ft | 492 kts | 334° |
| 2026-04-23 07:56 | 9.97337 | 38.20962 | 29015 ft | 494 kts | 334° |
| 2026-04-23 07:57 | 10.00448 | 38.19471 | 29301 ft | 495 kts | 334° |
| 2026-04-23 07:57 | 10.03569 | 38.17977 | 29558 ft | 497 kts | 333° |
| 2026-04-23 07:57 | 10.06703 | 38.16475 | 29786 ft | 499 kts | 333° |
| 2026-04-23 07:57 | 10.09846 | 38.14968 | 30006 ft | 501 kts | 333° |
| 2026-04-23 07:58 | 10.13003 | 38.13454 | 30075 ft | 503 kts | 333° |
| 2026-04-23 07:58 | 10.19312 | 38.10429 | 30321 ft | 502 kts | 333° |
| 2026-04-23 07:58 | 10.22463 | 38.08917 | 30674 ft | 499 kts | 333° |
| 2026-04-23 07:59 | 10.25581 | 38.07422 | 31120 ft | 494 kts | 333° |
| 2026-04-23 07:59 | 10.28677 | 38.05936 | 31542 ft | 490 kts | 333° |
| 2026-04-23 07:59 | 10.31748 | 38.04463 | 31944 ft | 487 kts | 333° |
| 2026-04-23 07:59 | 10.34810 | 38.02992 | 32159 ft | 488 kts | 333° |
| 2026-04-23 08:00 | 10.37886 | 38.01513 | 32133 ft | 489 kts | 333° |
| 2026-04-23 08:00 | 10.43971 | 37.98589 | 32146 ft | 485 kts | 333° |
| 2026-04-23 08:01 | 10.50058 | 37.95663 | 32146 ft | 483 kts | 333° |
| 2026-04-23 08:01 | 10.56117 | 37.92741 | 32141 ft | 482 kts | 332° |
| 2026-04-23 08:02 | 10.61990 | 37.89479 | 32129 ft | 481 kts | 328° |
| 2026-04-23 08:02 | 10.67764 | 37.86020 | 32126 ft | 482 kts | 328° |
| 2026-04-23 08:03 | 10.73572 | 37.82570 | 32116 ft | 484 kts | 328° |
| 2026-04-23 08:03 | 10.79394 | 37.79163 | 32106 ft | 486 kts | 328° |
| 2026-04-23 08:04 | 10.85276 | 37.75737 | 32097 ft | 488 kts | 328° |
| 2026-04-23 08:04 | 10.91169 | 37.72306 | 32080 ft | 487 kts | 328° |
| 2026-04-23 08:05 | 10.97062 | 37.68871 | 32066 ft | 486 kts | 328° |
| 2026-04-23 08:05 | 11.02931 | 37.65446 | 32043 ft | 486 kts | 328° |
| 2026-04-23 08:06 | 11.08752 | 37.62046 | 32052 ft | 485 kts | 328° |
| 2026-04-23 08:06 | 11.14603 | 37.58629 | 32020 ft | 484 kts | 328° |
| 2026-04-23 08:07 | 11.20448 | 37.55213 | 32025 ft | 484 kts | 328° |
| 2026-04-23 08:07 | 11.26287 | 37.51799 | 31995 ft | 484 kts | 328° |
| 2026-04-23 08:08 | 11.32132 | 37.48380 | 31986 ft | 484 kts | 328° |
| 2026-04-23 08:08 | 11.37978 | 37.44959 | 31978 ft | 484 kts | 328° |
| 2026-04-23 08:09 | 11.43823 | 37.41535 | 31979 ft | 485 kts | 328° |
| 2026-04-23 08:09 | 11.49675 | 37.38107 | 31968 ft | 486 kts | 328° |
| 2026-04-23 08:10 | 11.55533 | 37.34673 | 31960 ft | 486 kts | 328° |
| 2026-04-23 08:10 | 11.64358 | 37.29588 | 31960 ft | 486 kts | 330° |
| 2026-04-23 08:11 | 11.70370 | 37.26420 | 31955 ft | 486 kts | 330° |
| 2026-04-23 08:11 | 11.76357 | 37.23287 | 31960 ft | 486 kts | 330° |
| 2026-04-23 08:12 | 11.82366 | 37.20102 | 31959 ft | 487 kts | 330° |
| 2026-04-23 08:12 | 11.88372 | 37.16896 | 31960 ft | 487 kts | 330° |
| 2026-04-23 08:13 | 11.94380 | 37.13684 | 31959 ft | 488 kts | 330° |
| 2026-04-23 08:13 | 12.00395 | 37.10468 | 31966 ft | 488 kts | 330° |
| 2026-04-23 08:14 | 12.06418 | 37.07248 | 31959 ft | 488 kts | 329° |
| 2026-04-23 08:14 | 12.12428 | 37.04032 | 31952 ft | 488 kts | 329° |
| 2026-04-23 08:15 | 12.18446 | 37.00812 | 31952 ft | 487 kts | 329° |
| 2026-04-23 08:15 | 12.24411 | 36.97618 | 31949 ft | 487 kts | 329° |
| 2026-04-23 08:16 | 12.30415 | 36.94401 | 31939 ft | 487 kts | 329° |
| 2026-04-23 08:16 | 12.36442 | 36.91169 | 31939 ft | 488 kts | 329° |
| 2026-04-23 08:17 | 12.42463 | 36.87939 | 31914 ft | 488 kts | 329° |
| 2026-04-23 08:17 | 12.48433 | 36.84736 | 31913 ft | 488 kts | 329° |
| 2026-04-23 08:18 | 12.54435 | 36.81514 | 31880 ft | 487 kts | 329° |
| 2026-04-23 08:18 | 12.60443 | 36.78286 | 31886 ft | 487 kts | 329° |
| 2026-04-23 08:19 | 12.66440 | 36.75061 | 31881 ft | 487 kts | 329° |
| 2026-04-23 08:19 | 12.72438 | 36.71842 | 31868 ft | 487 kts | 329° |
| 2026-04-23 08:20 | 12.78494 | 36.68701 | 31853 ft | 487 kts | 330° |
| 2026-04-23 08:20 | 12.84552 | 36.65581 | 31858 ft | 487 kts | 330° |
| 2026-04-23 08:21 | 12.90597 | 36.62445 | 31848 ft | 487 kts | 330° |
| 2026-04-23 08:21 | 12.96638 | 36.59301 | 31856 ft | 487 kts | 330° |
| 2026-04-23 08:22 | 13.02674 | 36.56157 | 31836 ft | 486 kts | 329° |
| 2026-04-23 08:22 | 13.08704 | 36.53013 | 31837 ft | 486 kts | 329° |
| 2026-04-23 08:23 | 13.14731 | 36.49870 | 31833 ft | 486 kts | 329° |
| 2026-04-23 08:23 | 13.20753 | 36.46728 | 31828 ft | 485 kts | 329° |
| 2026-04-23 08:24 | 13.25755 | 36.44116 | 31821 ft | 485 kts | 329° |
| 2026-04-23 08:24 | 13.31772 | 36.40973 | 31822 ft | 485 kts | 329° |
| 2026-04-23 08:25 | 13.38759 | 36.37322 | 31813 ft | 484 kts | 329° |
| 2026-04-23 08:25 | 13.43775 | 36.34698 | 31804 ft | 483 kts | 329° |
| 2026-04-23 08:26 | 13.49712 | 36.31591 | 31807 ft | 482 kts | 329° |
| 2026-04-23 08:26 | 13.55684 | 36.28464 | 31801 ft | 482 kts | 329° |
| 2026-04-23 08:27 | 13.61667 | 36.25347 | 31816 ft | 482 kts | 331° |
| 2026-04-23 08:27 | 13.68160 | 36.23424 | 31836 ft | 493 kts | 348° |
| 2026-04-23 08:28 | 13.71610 | 36.23120 | 32038 ft | 500 kts | 356° |
| 2026-04-23 08:28 | 13.75103 | 36.23280 | 32415 ft | 500 kts | 359° |
| 2026-04-23 08:28 | 13.78557 | 36.23526 | 32802 ft | 497 kts | 359° |
| 2026-04-23 08:28 | 13.82024 | 36.23785 | 32776 ft | 500 kts | 359° |
| 2026-04-23 08:29 | 13.88939 | 36.24277 | 32796 ft | 496 kts | 359° |
| 2026-04-23 08:29 | 13.95785 | 36.24719 | 32802 ft | 496 kts | 358° |
| 2026-04-23 08:30 | 14.02678 | 36.25141 | 32799 ft | 496 kts | 358° |
| 2026-04-23 08:30 | 14.09575 | 36.25562 | 32798 ft | 496 kts | 358° |
| 2026-04-23 08:31 | 14.16464 | 36.25985 | 32795 ft | 496 kts | 358° |
| 2026-04-23 08:31 | 14.23364 | 36.26411 | 32800 ft | 496 kts | 358° |
| 2026-04-23 08:32 | 14.30257 | 36.26836 | 32791 ft | 496 kts | 358° |
| 2026-04-23 08:32 | 14.37108 | 36.27260 | 32798 ft | 497 kts | 358° |
| 2026-04-23 08:33 | 14.44008 | 36.27687 | 32800 ft | 497 kts | 358° |
| 2026-04-23 08:33 | 14.50910 | 36.28114 | 32797 ft | 497 kts | 358° |
| 2026-04-23 08:34 | 14.57814 | 36.28541 | 32789 ft | 497 kts | 358° |
| 2026-04-23 08:34 | 14.64713 | 36.28968 | 32791 ft | 497 kts | 358° |
| 2026-04-23 08:35 | 14.71617 | 36.29396 | 32792 ft | 497 kts | 358° |
| 2026-04-23 08:35 | 14.78519 | 36.29824 | 32793 ft | 497 kts | 358° |
| 2026-04-23 08:36 | 14.85423 | 36.30253 | 32794 ft | 497 kts | 358° |
| 2026-04-23 08:36 | 14.92323 | 36.30681 | 32798 ft | 497 kts | 358° |
| 2026-04-23 08:37 | 14.99222 | 36.31110 | 32788 ft | 497 kts | 358° |
| 2026-04-23 08:37 | 15.06121 | 36.31539 | 32802 ft | 497 kts | 357° |
| 2026-04-23 08:38 | 15.13019 | 36.31968 | 32776 ft | 497 kts | 357° |
| 2026-04-23 08:38 | 15.19916 | 36.32397 | 32795 ft | 496 kts | 357° |
| 2026-04-23 08:39 | 15.26811 | 36.32827 | 32793 ft | 496 kts | 357° |
| 2026-04-23 08:39 | 15.33702 | 36.33257 | 32804 ft | 496 kts | 357° |
| 2026-04-23 08:40 | 15.40555 | 36.33730 | 32795 ft | 498 kts | 0° |
| 2026-04-23 08:40 | 15.47432 | 36.35062 | 32807 ft | 504 kts | 6° |
| 2026-04-23 08:41 | 15.54281 | 36.36644 | 32797 ft | 504 kts | 6° |
| 2026-04-23 08:41 | 15.61141 | 36.38209 | 32807 ft | 504 kts | 6° |
| 2026-04-23 08:42 | 15.68006 | 36.39746 | 32797 ft | 504 kts | 5° |
| 2026-04-23 08:42 | 15.74834 | 36.41262 | 32800 ft | 504 kts | 5° |
| 2026-04-23 08:43 | 15.81704 | 36.42789 | 32794 ft | 504 kts | 5° |
| 2026-04-23 08:43 | 15.88572 | 36.44318 | 32804 ft | 504 kts | 5° |
| 2026-04-23 08:44 | 15.95436 | 36.45849 | 32795 ft | 505 kts | 5° |
| 2026-04-23 08:44 | 16.02304 | 36.47381 | 32793 ft | 504 kts | 5° |
| 2026-04-23 08:45 | 16.09135 | 36.48906 | 32800 ft | 504 kts | 5° |
| 2026-04-23 08:45 | 16.16008 | 36.50442 | 32809 ft | 504 kts | 5° |
| 2026-04-23 08:46 | 16.22881 | 36.51979 | 32797 ft | 504 kts | 5° |
| 2026-04-23 08:46 | 16.29737 | 36.53513 | 32801 ft | 504 kts | 5° |
| 2026-04-23 08:47 | 16.36595 | 36.55048 | 32796 ft | 504 kts | 5° |
| 2026-04-23 08:47 | 16.43449 | 36.56584 | 32810 ft | 504 kts | 5° |
| 2026-04-23 08:48 | 16.50314 | 36.58123 | 32803 ft | 504 kts | 5° |
| 2026-04-23 08:48 | 16.57187 | 36.59665 | 32797 ft | 505 kts | 5° |
| 2026-04-23 08:49 | 16.64016 | 36.61199 | 32801 ft | 505 kts | 5° |
| 2026-04-23 08:49 | 16.70895 | 36.62744 | 32816 ft | 505 kts | 5° |
| 2026-04-23 08:50 | 16.77779 | 36.64292 | 32810 ft | 506 kts | 5° |
| 2026-04-23 08:50 | 16.84674 | 36.65844 | 32806 ft | 507 kts | 5° |
| 2026-04-23 08:51 | 16.91572 | 36.67398 | 32806 ft | 507 kts | 5° |
| 2026-04-23 08:51 | 16.98445 | 36.68946 | 32807 ft | 508 kts | 5° |
| 2026-04-23 08:52 | 17.05354 | 36.70504 | 32819 ft | 508 kts | 5° |
| 2026-04-23 08:52 | 17.12280 | 36.72068 | 32817 ft | 509 kts | 5° |
| 2026-04-23 08:53 | 17.19208 | 36.73634 | 32806 ft | 509 kts | 5° |
| 2026-04-23 08:53 | 17.26138 | 36.75200 | 32824 ft | 510 kts | 5° |
| 2026-04-23 08:54 | 17.33039 | 36.76761 | 32824 ft | 510 kts | 5° |
| 2026-04-23 08:54 | 17.39980 | 36.78331 | 32849 ft | 507 kts | 5° |
| 2026-04-23 08:55 | 17.46853 | 36.79893 | 32819 ft | 508 kts | 5° |
| 2026-04-23 08:55 | 17.53772 | 36.81464 | 32826 ft | 508 kts | 5° |
| 2026-04-23 08:56 | 17.60694 | 36.83031 | 32824 ft | 509 kts | 5° |
| 2026-04-23 08:56 | 17.67583 | 36.84594 | 32816 ft | 510 kts | 5° |
| 2026-04-23 08:57 | 17.74528 | 36.86173 | 32836 ft | 510 kts | 5° |
| 2026-04-23 08:57 | 17.81481 | 36.87754 | 32813 ft | 512 kts | 5° |
| 2026-04-23 08:58 | 17.88438 | 36.89346 | 32840 ft | 511 kts | 5° |
| 2026-04-23 08:58 | 17.95347 | 36.90922 | 32821 ft | 511 kts | 5° |
| 2026-04-23 08:59 | 18.02295 | 36.92496 | 32865 ft | 511 kts | 5° |
| 2026-04-23 08:59 | 18.09245 | 36.94084 | 32842 ft | 511 kts | 5° |
| 2026-04-23 09:00 | 18.16193 | 36.95671 | 32837 ft | 511 kts | 5° |
| 2026-04-23 09:00 | 18.23139 | 36.97261 | 32853 ft | 511 kts | 5° |
| 2026-04-23 09:01 | 18.30086 | 36.98849 | 32859 ft | 511 kts | 5° |
| 2026-04-23 09:01 | 18.37035 | 37.00441 | 32849 ft | 511 kts | 5° |
| 2026-04-23 09:02 | 18.43979 | 37.02033 | 32851 ft | 511 kts | 5° |
| 2026-04-23 09:02 | 18.50921 | 37.03625 | 32854 ft | 510 kts | 5° |
| 2026-04-23 09:03 | 18.57860 | 37.05218 | 32859 ft | 510 kts | 5° |
| 2026-04-23 09:03 | 18.64794 | 37.06807 | 32854 ft | 510 kts | 5° |
| 2026-04-23 09:04 | 18.71732 | 37.08403 | 32849 ft | 510 kts | 5° |
| 2026-04-23 09:04 | 18.78663 | 37.10002 | 32867 ft | 510 kts | 5° |
| 2026-04-23 09:05 | 18.85604 | 37.11601 | 32855 ft | 510 kts | 5° |
| 2026-04-23 09:05 | 18.92540 | 37.13198 | 32858 ft | 510 kts | 5° |
| 2026-04-23 09:06 | 18.99474 | 37.14797 | 32855 ft | 510 kts | 5° |
| 2026-04-23 09:06 | 19.06409 | 37.16398 | 32871 ft | 510 kts | 6° |
| 2026-04-23 09:07 | 19.13348 | 37.18003 | 32856 ft | 510 kts | 6° |
| 2026-04-23 09:07 | 19.20230 | 37.19595 | 32859 ft | 510 kts | 6° |
| 2026-04-23 09:08 | 19.27163 | 37.21200 | 32853 ft | 510 kts | 6° |
| 2026-04-23 09:08 | 19.34087 | 37.22803 | 32876 ft | 509 kts | 6° |
| 2026-04-23 09:09 | 19.37573 | 37.23238 | 32962 ft | 499 kts | 352° |
| 2026-04-23 09:09 | 19.40958 | 37.22743 | 33345 ft | 483 kts | 339° |
| 2026-04-23 09:09 | 19.44083 | 37.21573 | 33796 ft | 470 kts | 328° |
| 2026-04-23 09:09 | 19.46877 | 37.19840 | 33816 ft | 463 kts | 321° |
| 2026-04-23 09:10 | 19.54913 | 37.14232 | 33852 ft | 461 kts | 321° |
| 2026-04-23 09:11 | 19.60300 | 37.10542 | 33850 ft | 459 kts | 322° |
| 2026-04-23 09:11 | 19.65726 | 37.06855 | 33873 ft | 468 kts | 322° |
| 2026-04-23 09:12 | 19.71241 | 37.03111 | 33857 ft | 476 kts | 322° |
| 2026-04-23 09:12 | 19.76824 | 36.99325 | 33850 ft | 476 kts | 322° |
| 2026-04-23 09:13 | 19.82415 | 36.95530 | 33857 ft | 477 kts | 321° |
| 2026-04-23 09:13 | 19.87074 | 36.92362 | 33871 ft | 478 kts | 321° |
| 2026-04-23 09:14 | 19.93587 | 36.87929 | 33871 ft | 478 kts | 321° |
| 2026-04-23 09:14 | 19.99182 | 36.84119 | 33879 ft | 477 kts | 321° |
| 2026-04-23 09:15 | 20.03857 | 36.80933 | 33868 ft | 476 kts | 321° |
| 2026-04-23 09:15 | 20.09382 | 36.77163 | 33868 ft | 474 kts | 320° |
| 2026-04-23 09:16 | 20.14931 | 36.73374 | 33871 ft | 473 kts | 320° |
| 2026-04-23 09:16 | 20.20474 | 36.69584 | 33862 ft | 473 kts | 320° |
| 2026-04-23 09:17 | 20.26016 | 36.65792 | 33861 ft | 474 kts | 320° |
| 2026-04-23 09:17 | 20.31555 | 36.62001 | 33851 ft | 473 kts | 320° |
| 2026-04-23 09:18 | 20.37090 | 36.58208 | 33855 ft | 473 kts | 320° |
| 2026-04-23 09:18 | 20.42620 | 36.54413 | 33851 ft | 473 kts | 320° |
| 2026-04-23 09:19 | 20.48155 | 36.50614 | 33851 ft | 473 kts | 320° |
| 2026-04-23 09:19 | 20.53694 | 36.46807 | 33853 ft | 474 kts | 320° |
| 2026-04-23 09:20 | 20.59241 | 36.42992 | 33856 ft | 474 kts | 320° |
| 2026-04-23 09:20 | 20.64784 | 36.39177 | 33846 ft | 473 kts | 320° |
| 2026-04-23 09:21 | 20.70312 | 36.35369 | 33841 ft | 472 kts | 320° |
| 2026-04-23 09:21 | 20.75826 | 36.31568 | 33834 ft | 471 kts | 320° |
| 2026-04-23 09:22 | 20.81326 | 36.27773 | 33833 ft | 470 kts | 320° |
| 2026-04-23 09:22 | 20.86815 | 36.23981 | 33855 ft | 470 kts | 320° |
| 2026-04-23 09:23 | 20.92300 | 36.20186 | 33842 ft | 471 kts | 320° |
| 2026-04-23 09:23 | 20.97806 | 36.16374 | 33845 ft | 472 kts | 320° |
| 2026-04-23 09:24 | 21.03286 | 36.12576 | 33842 ft | 474 kts | 320° |
| 2026-04-23 09:24 | 21.08825 | 36.08737 | 33844 ft | 475 kts | 320° |
| 2026-04-23 09:25 | 21.14376 | 36.04884 | 33846 ft | 476 kts | 320° |
| 2026-04-23 09:25 | 21.19937 | 36.01020 | 33840 ft | 477 kts | 320° |
| 2026-04-23 09:26 | 21.25496 | 35.97156 | 33856 ft | 475 kts | 320° |
| 2026-04-23 09:26 | 21.31028 | 35.93308 | 33841 ft | 472 kts | 320° |
| 2026-04-23 09:27 | 21.36522 | 35.89482 | 33839 ft | 469 kts | 320° |
| 2026-04-23 09:27 | 21.41981 | 35.85676 | 33841 ft | 467 kts | 320° |
| 2026-04-23 09:28 | 21.47423 | 35.81877 | 33847 ft | 466 kts | 320° |
| 2026-04-23 09:28 | 21.52851 | 35.78084 | 33852 ft | 466 kts | 320° |
| 2026-04-23 09:29 | 21.58295 | 35.74276 | 33862 ft | 470 kts | 320° |
| 2026-04-23 09:29 | 21.63823 | 35.70402 | 33863 ft | 478 kts | 320° |
| 2026-04-23 09:30 | 21.69396 | 35.66501 | 33851 ft | 478 kts | 320° |
| 2026-04-23 09:30 | 21.74971 | 35.62596 | 33852 ft | 478 kts | 320° |
| 2026-04-23 09:31 | 21.80531 | 35.58696 | 33866 ft | 477 kts | 320° |
| 2026-04-23 09:31 | 21.86049 | 35.54819 | 33852 ft | 477 kts | 320° |
| 2026-04-23 09:32 | 21.91632 | 35.50892 | 33865 ft | 476 kts | 319° |
| 2026-04-23 09:32 | 21.97143 | 35.47014 | 33868 ft | 476 kts | 319° |
| 2026-04-23 09:33 | 22.02690 | 35.43119 | 33868 ft | 476 kts | 319° |
| 2026-04-23 09:33 | 22.08250 | 35.39259 | 33868 ft | 475 kts | 320° |
| 2026-04-23 09:34 | 22.13802 | 35.35408 | 33863 ft | 474 kts | 319° |
| 2026-04-23 09:34 | 22.19348 | 35.31549 | 33871 ft | 474 kts | 319° |
| 2026-04-23 09:35 | 22.24895 | 35.27684 | 33868 ft | 474 kts | 319° |
| 2026-04-23 09:35 | 22.30436 | 35.23817 | 33876 ft | 474 kts | 319° |
| 2026-04-23 09:36 | 22.35972 | 35.19952 | 33867 ft | 474 kts | 319° |
| 2026-04-23 09:36 | 22.41508 | 35.16083 | 33866 ft | 474 kts | 319° |
| 2026-04-23 09:37 | 22.47047 | 35.12207 | 33868 ft | 474 kts | 319° |
| 2026-04-23 09:37 | 22.52581 | 35.08331 | 33882 ft | 474 kts | 319° |
| 2026-04-23 09:38 | 22.58122 | 35.04446 | 33858 ft | 475 kts | 319° |
| 2026-04-23 09:38 | 22.63663 | 35.00557 | 33863 ft | 475 kts | 319° |
| 2026-04-23 09:39 | 22.69200 | 34.96668 | 33862 ft | 475 kts | 319° |
| 2026-04-23 09:39 | 22.74750 | 34.92767 | 33868 ft | 476 kts | 319° |
| 2026-04-23 09:40 | 22.80312 | 34.88852 | 33864 ft | 477 kts | 319° |
| 2026-04-23 09:40 | 22.85888 | 34.84924 | 33884 ft | 478 kts | 318° |
| 2026-04-23 09:41 | 22.91467 | 34.80990 | 33869 ft | 478 kts | 318° |
| 2026-04-23 09:41 | 22.97039 | 34.77057 | 33868 ft | 478 kts | 318° |
| 2026-04-23 09:42 | 23.02605 | 34.73126 | 33881 ft | 477 kts | 318° |
| 2026-04-23 09:42 | 23.08164 | 34.69194 | 33856 ft | 476 kts | 318° |
| 2026-04-23 09:43 | 23.13665 | 34.65300 | 33863 ft | 475 kts | 317° |
| 2026-04-23 09:43 | 23.19193 | 34.61382 | 33871 ft | 473 kts | 317° |
| 2026-04-23 09:44 | 23.24703 | 34.57474 | 33864 ft | 472 kts | 317° |
| 2026-04-23 09:44 | 23.30200 | 34.53570 | 33855 ft | 472 kts | 317° |
| 2026-04-23 09:45 | 23.35688 | 34.49668 | 33863 ft | 471 kts | 317° |
| 2026-04-23 09:45 | 23.41173 | 34.45764 | 33866 ft | 471 kts | 317° |
| 2026-04-23 09:46 | 23.46656 | 34.41859 | 33864 ft | 471 kts | 317° |
| 2026-04-23 09:46 | 23.52141 | 34.37947 | 33862 ft | 471 kts | 317° |
| 2026-04-23 09:47 | 23.57630 | 34.34029 | 33869 ft | 472 kts | 317° |
| 2026-04-23 09:47 | 23.63131 | 34.30098 | 33857 ft | 473 kts | 317° |
| 2026-04-23 09:48 | 23.68637 | 34.26161 | 33866 ft | 473 kts | 317° |
| 2026-04-23 09:48 | 23.74150 | 34.22214 | 33862 ft | 474 kts | 317° |
| 2026-04-23 09:49 | 23.79658 | 34.18266 | 33868 ft | 474 kts | 317° |
| 2026-04-23 09:49 | 23.85176 | 34.14319 | 33870 ft | 474 kts | 319° |
| 2026-04-23 09:50 | 23.90661 | 34.10421 | 33853 ft | 473 kts | 319° |
| 2026-04-23 09:50 | 23.96170 | 34.06503 | 33856 ft | 471 kts | 319° |
| 2026-04-23 09:51 | 24.01655 | 34.02592 | 33861 ft | 470 kts | 319° |
| 2026-04-23 09:51 | 24.07127 | 33.98684 | 33862 ft | 469 kts | 319° |
| 2026-04-23 09:52 | 24.12591 | 33.94777 | 33872 ft | 469 kts | 319° |
| 2026-04-23 09:52 | 24.18054 | 33.90866 | 33861 ft | 469 kts | 319° |
| 2026-04-23 09:53 | 24.23513 | 33.86955 | 33863 ft | 469 kts | 319° |
| 2026-04-23 09:53 | 24.28968 | 33.83043 | 33863 ft | 469 kts | 319° |
| 2026-04-23 09:54 | 24.34421 | 33.79130 | 33873 ft | 468 kts | 319° |
| 2026-04-23 09:54 | 24.39876 | 33.75209 | 33866 ft | 469 kts | 319° |
| 2026-04-23 09:55 | 24.45326 | 33.71289 | 33891 ft | 469 kts | 319° |
| 2026-04-23 09:55 | 24.50805 | 33.67342 | 33893 ft | 473 kts | 319° |
| 2026-04-23 09:56 | 24.56363 | 33.63327 | 33878 ft | 482 kts | 319° |
| 2026-04-23 09:56 | 24.61977 | 33.59279 | 33870 ft | 483 kts | 319° |
| 2026-04-23 09:57 | 24.67593 | 33.55227 | 33869 ft | 483 kts | 319° |
| 2026-04-23 09:57 | 24.73200 | 33.51174 | 33872 ft | 482 kts | 319° |
| 2026-04-23 09:58 | 24.78795 | 33.47123 | 33897 ft | 481 kts | 319° |
| 2026-04-23 09:58 | 24.84377 | 33.43077 | 33877 ft | 480 kts | 319° |
| 2026-04-23 09:59 | 24.89941 | 33.39040 | 33874 ft | 478 kts | 319° |
| 2026-04-23 09:59 | 24.95491 | 33.35008 | 33871 ft | 477 kts | 319° |
| 2026-04-23 10:00 | 25.01030 | 33.30979 | 33877 ft | 477 kts | 319° |
| 2026-04-23 10:00 | 25.06565 | 33.26948 | 33882 ft | 477 kts | 319° |
| 2026-04-23 10:01 | 25.12069 | 33.22937 | 33895 ft | 477 kts | 318° |
| 2026-04-23 10:01 | 25.17599 | 33.18902 | 33882 ft | 476 kts | 318° |
| 2026-04-23 10:02 | 25.23111 | 33.14876 | 33896 ft | 474 kts | 317° |
| 2026-04-23 10:02 | 25.28611 | 33.10862 | 33881 ft | 473 kts | 317° |
| 2026-04-23 10:03 | 25.34091 | 33.06862 | 33884 ft | 471 kts | 317° |
| 2026-04-23 10:03 | 25.39551 | 33.02869 | 33883 ft | 470 kts | 317° |
| 2026-04-23 10:04 | 25.44082 | 32.99551 | 33898 ft | 470 kts | 317° |
| 2026-04-23 10:04 | 25.49525 | 32.95560 | 33890 ft | 469 kts | 317° |
| 2026-04-23 10:05 | 25.54965 | 32.91568 | 33896 ft | 469 kts | 317° |
| 2026-04-23 10:05 | 25.60408 | 32.87569 | 33895 ft | 470 kts | 317° |
| 2026-04-23 10:06 | 25.65859 | 32.83560 | 33886 ft | 470 kts | 317° |
| 2026-04-23 10:06 | 25.71313 | 32.79540 | 33910 ft | 470 kts | 316° |
| 2026-04-23 10:07 | 25.76253 | 32.74982 | 33917 ft | 456 kts | 306° |
| 2026-04-23 10:07 | 25.80361 | 32.69739 | 33912 ft | 448 kts | 300° |
| 2026-04-23 10:08 | 25.84325 | 32.64396 | 33900 ft | 448 kts | 301° |
| 2026-04-23 10:08 | 25.88305 | 32.59063 | 33904 ft | 448 kts | 301° |
| 2026-04-23 10:09 | 25.94277 | 32.51071 | 33889 ft | 448 kts | 301° |
| 2026-04-23 10:09 | 25.98266 | 32.45734 | 33880 ft | 449 kts | 301° |
| 2026-04-23 10:10 | 26.02252 | 32.40400 | 33884 ft | 449 kts | 301° |
| 2026-04-23 10:10 | 26.06212 | 32.35092 | 33875 ft | 449 kts | 301° |
| 2026-04-23 10:11 | 26.10191 | 32.29753 | 33877 ft | 448 kts | 301° |
| 2026-04-23 10:11 | 26.14153 | 32.24432 | 33903 ft | 444 kts | 300° |
| 2026-04-23 10:12 | 26.18051 | 32.19197 | 33891 ft | 437 kts | 300° |
| 2026-04-23 10:12 | 26.21921 | 32.13977 | 33876 ft | 437 kts | 300° |
| 2026-04-23 10:13 | 26.25791 | 32.08753 | 33889 ft | 437 kts | 300° |
| 2026-04-23 10:13 | 26.29667 | 32.03516 | 33879 ft | 439 kts | 300° |
| 2026-04-23 10:14 | 26.33554 | 31.98262 | 33874 ft | 440 kts | 300° |
| 2026-04-23 10:14 | 26.37449 | 31.92989 | 33875 ft | 441 kts | 300° |
| 2026-04-23 10:15 | 26.41356 | 31.87698 | 33886 ft | 442 kts | 300° |
| 2026-04-23 10:15 | 26.45267 | 31.82394 | 33884 ft | 443 kts | 300° |
| 2026-04-23 10:16 | 26.49181 | 31.77078 | 33892 ft | 444 kts | 301° |
| 2026-04-23 10:16 | 26.53082 | 31.71774 | 33916 ft | 446 kts | 302° |
| 2026-04-23 10:17 | 26.57025 | 31.66406 | 33904 ft | 448 kts | 302° |
| 2026-04-23 10:17 | 26.61003 | 31.60984 | 33915 ft | 449 kts | 302° |
| 2026-04-23 10:18 | 26.64936 | 31.55619 | 33926 ft | 449 kts | 302° |
| 2026-04-23 10:18 | 26.68896 | 31.50210 | 33960 ft | 450 kts | 303° |
| 2026-04-23 10:19 | 26.72860 | 31.44789 | 33950 ft | 450 kts | 303° |
| 2026-04-23 10:19 | 26.76825 | 31.39358 | 33972 ft | 450 kts | 303° |
| 2026-04-23 10:20 | 26.80785 | 31.33927 | 33972 ft | 450 kts | 303° |
| 2026-04-23 10:20 | 26.84739 | 31.28499 | 34002 ft | 450 kts | 303° |
| 2026-04-23 10:21 | 26.88690 | 31.23068 | 34032 ft | 450 kts | 303° |
| 2026-04-23 10:21 | 26.92641 | 31.17630 | 34023 ft | 450 kts | 303° |
| 2026-04-23 10:22 | 26.96593 | 31.12184 | 34019 ft | 450 kts | 303° |
| 2026-04-23 10:22 | 27.00543 | 31.06740 | 34023 ft | 450 kts | 304° |
| 2026-04-23 10:23 | 27.05022 | 31.01738 | 34023 ft | 459 kts | 313° |
| 2026-04-23 10:23 | 27.10198 | 30.97465 | 34020 ft | 463 kts | 318° |
| 2026-04-23 10:24 | 27.15480 | 30.93319 | 34027 ft | 463 kts | 318° |
| 2026-04-23 10:24 | 27.20747 | 30.89160 | 34027 ft | 462 kts | 318° |
| 2026-04-23 10:25 | 27.25993 | 30.84987 | 34046 ft | 462 kts | 319° |
| 2026-04-23 10:25 | 27.31232 | 30.80804 | 34029 ft | 461 kts | 319° |
| 2026-04-23 10:26 | 27.36461 | 30.76625 | 34031 ft | 461 kts | 319° |
| 2026-04-23 10:26 | 27.41678 | 30.72449 | 34025 ft | 460 kts | 319° |
| 2026-04-23 10:27 | 27.46890 | 30.68273 | 34025 ft | 460 kts | 319° |
| 2026-04-23 10:27 | 27.52106 | 30.64090 | 34000 ft | 460 kts | 319° |
| 2026-04-23 10:28 | 27.57279 | 30.59936 | 34015 ft | 460 kts | 319° |
| 2026-04-23 10:28 | 27.62500 | 30.55737 | 34012 ft | 461 kts | 319° |
| 2026-04-23 10:29 | 27.67718 | 30.51537 | 34007 ft | 461 kts | 319° |
| 2026-04-23 10:29 | 27.72945 | 30.47325 | 34010 ft | 462 kts | 319° |
| 2026-04-23 10:30 | 27.78171 | 30.43109 | 34001 ft | 462 kts | 319° |
| 2026-04-23 10:30 | 27.83395 | 30.38889 | 34020 ft | 462 kts | 319° |
| 2026-04-23 10:31 | 27.88618 | 30.34664 | 34009 ft | 462 kts | 319° |
| 2026-04-23 10:31 | 27.93842 | 30.30433 | 34007 ft | 462 kts | 320° |
| 2026-04-23 10:32 | 27.99064 | 30.26200 | 34000 ft | 462 kts | 320° |
| 2026-04-23 10:32 | 28.04283 | 30.21964 | 33994 ft | 461 kts | 320° |
| 2026-04-23 10:33 | 28.09496 | 30.17727 | 34001 ft | 461 kts | 320° |
| 2026-04-23 10:33 | 28.14710 | 30.13484 | 33997 ft | 461 kts | 320° |
| 2026-04-23 10:34 | 28.19919 | 30.09240 | 33989 ft | 461 kts | 320° |
| 2026-04-23 10:34 | 28.25097 | 30.05015 | 34005 ft | 462 kts | 320° |
| 2026-04-23 10:35 | 28.30316 | 30.00752 | 33998 ft | 463 kts | 320° |
| 2026-04-23 10:35 | 28.35540 | 29.96480 | 33989 ft | 463 kts | 320° |
| 2026-04-23 10:36 | 28.40769 | 29.92200 | 33979 ft | 463 kts | 320° |
| 2026-04-23 10:36 | 28.45995 | 29.87915 | 33979 ft | 463 kts | 320° |
| 2026-04-23 10:37 | 28.51218 | 29.83628 | 33982 ft | 463 kts | 320° |
| 2026-04-23 10:37 | 28.56445 | 29.79333 | 33967 ft | 464 kts | 320° |
| 2026-04-23 10:38 | 28.61668 | 29.75035 | 33972 ft | 463 kts | 320° |
| 2026-04-23 10:38 | 28.66887 | 29.70735 | 33968 ft | 463 kts | 320° |
| 2026-04-23 10:39 | 28.72104 | 29.66431 | 33968 ft | 463 kts | 320° |
| 2026-04-23 10:39 | 28.77315 | 29.62127 | 33968 ft | 463 kts | 320° |
| 2026-04-23 10:40 | 28.82523 | 29.57819 | 33961 ft | 462 kts | 320° |
| 2026-04-23 10:40 | 28.87727 | 29.53510 | 33983 ft | 462 kts | 319° |
| 2026-04-23 10:41 | 28.92931 | 29.49196 | 33957 ft | 462 kts | 319° |
| 2026-04-23 10:41 | 28.98123 | 29.44885 | 33953 ft | 461 kts | 319° |
| 2026-04-23 10:42 | 29.03304 | 29.40578 | 33953 ft | 460 kts | 319° |
| 2026-04-23 10:42 | 29.08477 | 29.36272 | 33955 ft | 460 kts | 319° |
| 2026-04-23 10:43 | 29.13641 | 29.31959 | 33954 ft | 459 kts | 319° |
| 2026-04-23 10:43 | 29.18745 | 29.27570 | 33972 ft | 459 kts | 318° |
| 2026-04-23 10:44 | 29.23834 | 29.23155 | 33958 ft | 459 kts | 318° |
| 2026-04-23 10:44 | 29.28927 | 29.18747 | 33953 ft | 459 kts | 318° |
| 2026-04-23 10:45 | 29.34018 | 29.14344 | 33953 ft | 459 kts | 318° |
| 2026-04-23 10:45 | 29.39107 | 29.09937 | 33952 ft | 458 kts | 318° |
| 2026-04-23 10:46 | 29.44190 | 29.05524 | 33952 ft | 458 kts | 318° |
| 2026-04-23 10:46 | 29.49259 | 29.01092 | 33977 ft | 458 kts | 318° |
| 2026-04-23 10:47 | 29.54325 | 28.96651 | 33955 ft | 458 kts | 318° |
| 2026-04-23 10:47 | 29.59358 | 28.92235 | 33953 ft | 458 kts | 318° |
| 2026-04-23 10:48 | 29.64424 | 28.87787 | 33952 ft | 458 kts | 318° |
| 2026-04-23 10:48 | 29.69485 | 28.83338 | 33953 ft | 458 kts | 318° |
| 2026-04-23 10:49 | 29.74543 | 28.78886 | 33951 ft | 458 kts | 318° |
| 2026-04-23 10:49 | 29.79598 | 28.74430 | 33948 ft | 458 kts | 318° |
| 2026-04-23 10:50 | 29.84654 | 28.69967 | 33955 ft | 458 kts | 318° |
| 2026-04-23 10:50 | 29.89709 | 28.65501 | 33953 ft | 458 kts | 318° |
| 2026-04-23 10:51 | 29.94757 | 28.61033 | 33950 ft | 457 kts | 318° |
| 2026-04-23 10:51 | 29.99758 | 28.56602 | 33951 ft | 457 kts | 318° |
| 2026-04-23 10:52 | 30.04769 | 28.52157 | 33951 ft | 456 kts | 318° |
| 2026-04-23 10:52 | 30.08948 | 28.48444 | 33953 ft | 456 kts | 318° |
| 2026-04-23 10:53 | 30.13973 | 28.43976 | 33952 ft | 456 kts | 318° |
| 2026-04-23 10:53 | 30.19000 | 28.39499 | 33954 ft | 456 kts | 318° |
| 2026-04-23 10:54 | 30.24024 | 28.35018 | 33962 ft | 456 kts | 318° |
| 2026-04-23 10:54 | 30.29048 | 28.30533 | 33964 ft | 456 kts | 318° |
| 2026-04-23 10:55 | 30.34073 | 28.26040 | 33955 ft | 456 kts | 318° |
| 2026-04-23 10:55 | 30.39092 | 28.21546 | 33956 ft | 456 kts | 318° |
| 2026-04-23 10:56 | 30.44113 | 28.17045 | 33989 ft | 456 kts | 318° |
| 2026-04-23 10:56 | 30.49136 | 28.12536 | 33963 ft | 456 kts | 318° |
| 2026-04-23 10:57 | 30.54149 | 28.08030 | 33957 ft | 456 kts | 318° |
| 2026-04-23 10:57 | 30.59117 | 28.03559 | 33962 ft | 455 kts | 318° |
| 2026-04-23 10:58 | 30.64111 | 27.99057 | 33963 ft | 454 kts | 318° |
| 2026-04-23 10:58 | 30.69096 | 27.94559 | 33961 ft | 454 kts | 318° |
| 2026-04-23 10:59 | 30.74079 | 27.90055 | 33967 ft | 454 kts | 318° |
| 2026-04-23 10:59 | 30.79057 | 27.85550 | 33961 ft | 454 kts | 318° |
| 2026-04-23 11:00 | 30.84037 | 27.81037 | 33973 ft | 453 kts | 318° |
| 2026-04-23 11:00 | 30.89008 | 27.76527 | 33971 ft | 453 kts | 318° |
| 2026-04-23 11:01 | 30.93976 | 27.72012 | 33971 ft | 453 kts | 318° |
| 2026-04-23 11:01 | 30.98942 | 27.67493 | 33972 ft | 453 kts | 318° |
| 2026-04-23 11:02 | 31.03904 | 27.62971 | 33975 ft | 453 kts | 318° |
| 2026-04-23 11:02 | 31.08868 | 27.58443 | 33988 ft | 453 kts | 317° |
| 2026-04-23 11:03 | 31.13475 | 27.53498 | 33980 ft | 448 kts | 308° |
| 2026-04-23 11:03 | 31.17264 | 27.47783 | 33983 ft | 444 kts | 301° |
| 2026-04-23 11:04 | 31.20693 | 27.41787 | 33988 ft | 444 kts | 301° |
| 2026-04-23 11:04 | 31.24137 | 27.35802 | 33992 ft | 444 kts | 301° |
| 2026-04-23 11:05 | 31.27598 | 27.29823 | 33992 ft | 444 kts | 301° |
| 2026-04-23 11:05 | 31.31325 | 27.24058 | 33989 ft | 448 kts | 310° |
| 2026-04-23 11:06 | 31.38612 | 27.17118 | 33975 ft | 455 kts | 323° |
| 2026-04-23 11:07 | 31.43971 | 27.13161 | 34003 ft | 455 kts | 323° |
| 2026-04-23 11:07 | 31.49303 | 27.09235 | 33979 ft | 455 kts | 323° |
| 2026-04-23 11:08 | 31.54647 | 27.05257 | 33976 ft | 455 kts | 323° |
| 2026-04-23 11:08 | 31.59972 | 27.01264 | 33974 ft | 454 kts | 323° |
| 2026-04-23 11:09 | 31.65290 | 26.97265 | 33984 ft | 454 kts | 323° |
| 2026-04-23 11:09 | 31.70601 | 26.93265 | 33979 ft | 453 kts | 322° |
| 2026-04-23 11:10 | 31.75912 | 26.89260 | 33983 ft | 454 kts | 322° |
| 2026-04-23 11:10 | 31.81220 | 26.85253 | 33985 ft | 454 kts | 322° |
| 2026-04-23 11:11 | 31.86527 | 26.81241 | 33982 ft | 453 kts | 322° |
| 2026-04-23 11:11 | 31.91830 | 26.77227 | 33980 ft | 453 kts | 322° |
| 2026-04-23 11:12 | 31.97128 | 26.73211 | 33981 ft | 453 kts | 322° |
| 2026-04-23 11:12 | 32.02424 | 26.69190 | 34000 ft | 453 kts | 322° |
| 2026-04-23 11:13 | 32.07721 | 26.65163 | 33977 ft | 453 kts | 322° |
| 2026-04-23 11:13 | 32.13018 | 26.61131 | 33977 ft | 453 kts | 322° |
| 2026-04-23 11:14 | 32.18314 | 26.57094 | 33976 ft | 453 kts | 322° |
| 2026-04-23 11:14 | 32.23608 | 26.53053 | 33976 ft | 453 kts | 322° |
| 2026-04-23 11:15 | 32.28898 | 26.49009 | 33972 ft | 453 kts | 322° |
| 2026-04-23 11:15 | 32.34155 | 26.44985 | 33987 ft | 453 kts | 322° |
| 2026-04-23 11:16 | 32.39446 | 26.40929 | 33979 ft | 453 kts | 322° |
| 2026-04-23 11:16 | 32.44738 | 26.36866 | 33972 ft | 453 kts | 322° |
| 2026-04-23 11:17 | 32.50027 | 26.32800 | 33974 ft | 453 kts | 322° |
| 2026-04-23 11:17 | 32.55314 | 26.28729 | 33974 ft | 453 kts | 322° |
| 2026-04-23 11:18 | 32.60596 | 26.24657 | 33972 ft | 453 kts | 322° |
| 2026-04-23 11:18 | 32.65874 | 26.20582 | 33970 ft | 453 kts | 322° |
| 2026-04-23 11:19 | 32.71153 | 26.16500 | 33969 ft | 453 kts | 322° |
| 2026-04-23 11:19 | 32.76427 | 26.12416 | 33968 ft | 452 kts | 322° |
| 2026-04-23 11:20 | 32.81698 | 26.08329 | 33964 ft | 452 kts | 322° |
| 2026-04-23 11:20 | 32.86966 | 26.04239 | 33964 ft | 452 kts | 322° |
| 2026-04-23 11:21 | 32.92233 | 26.00143 | 33977 ft | 452 kts | 322° |
| 2026-04-23 11:21 | 32.97504 | 25.96037 | 33964 ft | 453 kts | 322° |
| 2026-04-23 11:22 | 33.02777 | 25.91925 | 33970 ft | 453 kts | 321° |
| 2026-04-23 11:22 | 33.08046 | 25.87810 | 33965 ft | 453 kts | 321° |
| 2026-04-23 11:23 | 33.13312 | 25.83692 | 33967 ft | 452 kts | 321° |
| 2026-04-23 11:23 | 33.18512 | 25.79618 | 33964 ft | 452 kts | 321° |
| 2026-04-23 11:24 | 33.23762 | 25.75500 | 33957 ft | 452 kts | 321° |
| 2026-04-23 11:24 | 33.29014 | 25.71374 | 33957 ft | 451 kts | 321° |
| 2026-04-23 11:25 | 33.34259 | 25.67247 | 33960 ft | 451 kts | 321° |
| 2026-04-23 11:25 | 33.39505 | 25.63114 | 33963 ft | 451 kts | 321° |
| 2026-04-23 11:26 | 33.44748 | 25.58977 | 33961 ft | 451 kts | 321° |
| 2026-04-23 11:26 | 33.49987 | 25.54837 | 33973 ft | 452 kts | 321° |
| 2026-04-23 11:27 | 33.55234 | 25.50684 | 33959 ft | 452 kts | 321° |
| 2026-04-23 11:27 | 33.60483 | 25.46524 | 33956 ft | 452 kts | 321° |
| 2026-04-23 11:28 | 33.65732 | 25.42358 | 33959 ft | 452 kts | 321° |
| 2026-04-23 11:28 | 33.70982 | 25.38184 | 33953 ft | 453 kts | 321° |
| 2026-04-23 11:29 | 33.76232 | 25.34005 | 33950 ft | 453 kts | 321° |
| 2026-04-23 11:29 | 33.81479 | 25.29821 | 33946 ft | 453 kts | 321° |
| 2026-04-23 11:30 | 33.86728 | 25.25629 | 33938 ft | 453 kts | 320° |
| 2026-04-23 11:30 | 33.91969 | 25.21437 | 33961 ft | 452 kts | 320° |
| 2026-04-23 11:31 | 33.97206 | 25.17243 | 33946 ft | 452 kts | 320° |
| 2026-04-23 11:31 | 34.02148 | 25.12664 | 33936 ft | 444 kts | 311° |
| 2026-04-23 11:32 | 34.06594 | 25.07505 | 33950 ft | 444 kts | 311° |
| 2026-04-23 11:32 | 34.11022 | 25.02385 | 33958 ft | 444 kts | 311° |
| 2026-04-23 11:33 | 34.15493 | 24.97239 | 33952 ft | 444 kts | 311° |
| 2026-04-23 11:33 | 34.19970 | 24.92089 | 33942 ft | 444 kts | 311° |
| 2026-04-23 11:34 | 34.24438 | 24.86942 | 33949 ft | 444 kts | 311° |
| 2026-04-23 11:34 | 34.28900 | 24.81792 | 33949 ft | 443 kts | 311° |
| 2026-04-23 11:35 | 34.33359 | 24.76638 | 33934 ft | 443 kts | 311° |
| 2026-04-23 11:35 | 34.37813 | 24.71482 | 33935 ft | 443 kts | 310° |
| 2026-04-23 11:36 | 34.42265 | 24.66320 | 33941 ft | 443 kts | 310° |
| 2026-04-23 11:36 | 34.46713 | 24.61153 | 33940 ft | 443 kts | 310° |
| 2026-04-23 11:37 | 34.51152 | 24.55991 | 33936 ft | 442 kts | 310° |
| 2026-04-23 11:37 | 34.55537 | 24.50777 | 33939 ft | 441 kts | 309° |
| 2026-04-23 11:38 | 34.59855 | 24.45499 | 33940 ft | 440 kts | 309° |
| 2026-04-23 11:38 | 34.64143 | 24.40252 | 33936 ft | 441 kts | 309° |
| 2026-04-23 11:39 | 34.68464 | 24.34977 | 33941 ft | 440 kts | 309° |
| 2026-04-23 11:39 | 34.72786 | 24.29701 | 33944 ft | 440 kts | 309° |
| 2026-04-23 11:40 | 34.77099 | 24.24428 | 33927 ft | 439 kts | 309° |
| 2026-04-23 11:40 | 34.81394 | 24.19166 | 33949 ft | 438 kts | 309° |
| 2026-04-23 11:41 | 34.85678 | 24.13910 | 33945 ft | 437 kts | 308° |
| 2026-04-23 11:41 | 34.89954 | 24.08654 | 33933 ft | 436 kts | 308° |
| 2026-04-23 11:42 | 34.94222 | 24.03401 | 33939 ft | 436 kts | 308° |
| 2026-04-23 11:42 | 34.98491 | 23.98146 | 33941 ft | 436 kts | 308° |
| 2026-04-23 11:43 | 35.02756 | 23.92897 | 33980 ft | 436 kts | 308° |
| 2026-04-23 11:43 | 35.06302 | 23.88525 | 33954 ft | 436 kts | 308° |
| 2026-04-23 11:44 | 35.10564 | 23.83263 | 33949 ft | 435 kts | 308° |
| 2026-04-23 11:44 | 35.14815 | 23.78003 | 33954 ft | 435 kts | 308° |
| 2026-04-23 11:45 | 35.19060 | 23.72746 | 33955 ft | 435 kts | 309° |
| 2026-04-23 11:45 | 35.23789 | 23.68023 | 33956 ft | 444 kts | 318° |
| 2026-04-23 11:46 | 35.29151 | 23.64182 | 33976 ft | 447 kts | 326° |
| 2026-04-23 11:46 | 35.34742 | 23.60857 | 34038 ft | 448 kts | 327° |
| 2026-04-23 11:47 | 35.40388 | 23.57518 | 33974 ft | 453 kts | 327° |
| 2026-04-23 11:47 | 35.46063 | 23.54128 | 33972 ft | 454 kts | 327° |
| 2026-04-23 11:48 | 35.51746 | 23.50707 | 33981 ft | 455 kts | 327° |
| 2026-04-23 11:48 | 35.57431 | 23.47274 | 33980 ft | 455 kts | 327° |
| 2026-04-23 11:49 | 35.63115 | 23.43836 | 33988 ft | 455 kts | 327° |
| 2026-04-23 11:49 | 35.68793 | 23.40397 | 33997 ft | 455 kts | 327° |
| 2026-04-23 11:50 | 35.74464 | 23.36956 | 33986 ft | 455 kts | 327° |
| 2026-04-23 11:50 | 35.80132 | 23.33513 | 33985 ft | 453 kts | 327° |
| 2026-04-23 11:51 | 35.85781 | 23.30074 | 34031 ft | 452 kts | 327° |
| 2026-04-23 11:51 | 35.91389 | 23.26657 | 33990 ft | 452 kts | 327° |
| 2026-04-23 11:52 | 35.97020 | 23.23219 | 34013 ft | 451 kts | 327° |
| 2026-04-23 11:52 | 36.02647 | 23.19776 | 33987 ft | 452 kts | 327° |
| 2026-04-23 11:53 | 36.08271 | 23.16331 | 34013 ft | 451 kts | 327° |
| 2026-04-23 11:53 | 36.13891 | 23.12883 | 33988 ft | 451 kts | 327° |
| 2026-04-23 11:54 | 36.19509 | 23.09432 | 34008 ft | 451 kts | 327° |
| 2026-04-23 11:54 | 36.25121 | 23.05977 | 33996 ft | 450 kts | 327° |
| 2026-04-23 11:55 | 36.30730 | 23.02520 | 34000 ft | 450 kts | 327° |
| 2026-04-23 11:55 | 36.36330 | 22.99062 | 34006 ft | 450 kts | 327° |
| 2026-04-23 11:56 | 36.41938 | 22.95593 | 34008 ft | 450 kts | 326° |
| 2026-04-23 11:56 | 36.47545 | 22.92119 | 34005 ft | 450 kts | 326° |
| 2026-04-23 11:57 | 36.53146 | 22.88644 | 34000 ft | 450 kts | 326° |
| 2026-04-23 11:57 | 36.58746 | 22.85164 | 34005 ft | 450 kts | 326° |
| 2026-04-23 11:58 | 36.64341 | 22.81681 | 34039 ft | 449 kts | 326° |
| 2026-04-23 11:58 | 36.69933 | 22.78194 | 34031 ft | 449 kts | 326° |
| 2026-04-23 11:59 | 36.75509 | 22.74713 | 34007 ft | 448 kts | 326° |
| 2026-04-23 11:59 | 36.81032 | 22.71258 | 34002 ft | 446 kts | 326° |
| 2026-04-23 12:00 | 36.86565 | 22.67792 | 34005 ft | 444 kts | 326° |
| 2026-04-23 12:00 | 36.92085 | 22.64327 | 34003 ft | 444 kts | 326° |
| 2026-04-23 12:01 | 36.97600 | 22.60859 | 34006 ft | 443 kts | 326° |
| 2026-04-23 12:01 | 37.03109 | 22.57390 | 34006 ft | 443 kts | 326° |
| 2026-04-23 12:02 | 37.08612 | 22.53919 | 34003 ft | 443 kts | 326° |
| 2026-04-23 12:02 | 37.14122 | 22.50439 | 34000 ft | 444 kts | 326° |
| 2026-04-23 12:03 | 37.19634 | 22.46950 | 34016 ft | 443 kts | 326° |
| 2026-04-23 12:03 | 37.25127 | 22.43467 | 34002 ft | 441 kts | 325° |
| 2026-04-23 12:04 | 37.30596 | 22.40000 | 33997 ft | 440 kts | 325° |
| 2026-04-23 12:04 | 37.36046 | 22.36534 | 33994 ft | 438 kts | 325° |
| 2026-04-23 12:05 | 37.41479 | 22.33072 | 34036 ft | 438 kts | 325° |
| 2026-04-23 12:05 | 37.46917 | 22.29605 | 33984 ft | 438 kts | 325° |
| 2026-04-23 12:06 | 37.52335 | 22.26142 | 33989 ft | 436 kts | 325° |
| 2026-04-23 12:06 | 37.60419 | 22.20965 | 33983 ft | 436 kts | 325° |
| 2026-04-23 12:07 | 37.65832 | 22.17491 | 34012 ft | 437 kts | 325° |
| 2026-04-23 12:07 | 37.71254 | 22.14004 | 33975 ft | 437 kts | 325° |
| 2026-04-23 12:08 | 37.76678 | 22.10513 | 33976 ft | 438 kts | 325° |
| 2026-04-23 12:08 | 37.82106 | 22.07014 | 33969 ft | 438 kts | 325° |
| 2026-04-23 12:09 | 37.87526 | 22.03514 | 33970 ft | 437 kts | 325° |
| 2026-04-23 12:09 | 37.92940 | 22.00013 | 33988 ft | 438 kts | 325° |
| 2026-04-23 12:10 | 37.98367 | 21.96492 | 33973 ft | 439 kts | 325° |
| 2026-04-23 12:10 | 38.03800 | 21.92966 | 33979 ft | 439 kts | 325° |
| 2026-04-23 12:11 | 38.09238 | 21.89431 | 33964 ft | 439 kts | 325° |
| 2026-04-23 12:11 | 38.14672 | 21.85893 | 33976 ft | 439 kts | 325° |
| 2026-04-23 12:12 | 38.20116 | 21.82338 | 33970 ft | 441 kts | 325° |
| 2026-04-23 12:12 | 38.25580 | 21.78768 | 33988 ft | 442 kts | 325° |
| 2026-04-23 12:13 | 38.31046 | 21.75190 | 33965 ft | 442 kts | 325° |
| 2026-04-23 12:13 | 38.36511 | 21.71608 | 33994 ft | 441 kts | 325° |
| 2026-04-23 12:14 | 38.41969 | 21.68023 | 33993 ft | 442 kts | 326° |
| 2026-04-23 12:14 | 38.47438 | 21.64422 | 33982 ft | 443 kts | 326° |
| 2026-04-23 12:15 | 38.52927 | 21.60803 | 33976 ft | 444 kts | 326° |
| 2026-04-23 12:15 | 38.58419 | 21.57178 | 33982 ft | 444 kts | 326° |
| 2026-04-23 12:16 | 38.63914 | 21.53545 | 33966 ft | 444 kts | 326° |
| 2026-04-23 12:16 | 38.69405 | 21.49904 | 33975 ft | 445 kts | 326° |
| 2026-04-23 12:17 | 38.74906 | 21.46255 | 33977 ft | 446 kts | 326° |
| 2026-04-23 12:17 | 38.80412 | 21.42595 | 33976 ft | 446 kts | 326° |
| 2026-04-23 12:18 | 38.85931 | 21.38919 | 33965 ft | 448 kts | 326° |
| 2026-04-23 12:18 | 38.91453 | 21.35231 | 33994 ft | 447 kts | 326° |
| 2026-04-23 12:19 | 38.96958 | 21.31554 | 33977 ft | 445 kts | 326° |
| 2026-04-23 12:19 | 39.02459 | 21.27870 | 33973 ft | 446 kts | 326° |
| 2026-04-23 12:20 | 39.07971 | 21.24171 | 33964 ft | 447 kts | 326° |
| 2026-04-23 12:20 | 39.13495 | 21.20459 | 33966 ft | 448 kts | 326° |
| 2026-04-23 12:21 | 39.19037 | 21.16727 | 33974 ft | 450 kts | 327° |
| 2026-04-23 12:21 | 39.24598 | 21.12978 | 33966 ft | 452 kts | 327° |
| 2026-04-23 12:22 | 39.30170 | 21.09214 | 33970 ft | 453 kts | 327° |
| 2026-04-23 12:22 | 39.35755 | 21.05434 | 33973 ft | 453 kts | 327° |
| 2026-04-23 12:23 | 39.41344 | 21.01644 | 33974 ft | 454 kts | 328° |
| 2026-04-23 12:23 | 39.46907 | 20.97860 | 34001 ft | 451 kts | 328° |
| 2026-04-23 12:24 | 39.52483 | 20.94071 | 33993 ft | 454 kts | 328° |
| 2026-04-23 12:24 | 39.58079 | 20.90256 | 33991 ft | 455 kts | 328° |
| 2026-04-23 12:25 | 39.63695 | 20.86417 | 34003 ft | 457 kts | 328° |
| 2026-04-23 12:25 | 39.69315 | 20.82540 | 33998 ft | 458 kts | 327° |
| 2026-04-23 12:26 | 39.74563 | 20.77902 | 33989 ft | 457 kts | 321° |
| 2026-04-23 12:26 | 39.79692 | 20.72987 | 33973 ft | 459 kts | 321° |
| 2026-04-23 12:27 | 39.84856 | 20.68070 | 33966 ft | 461 kts | 321° |
| 2026-04-23 12:27 | 39.90040 | 20.63157 | 33991 ft | 461 kts | 322° |
| 2026-04-23 12:28 | 39.95206 | 20.58252 | 33966 ft | 463 kts | 322° |
| 2026-04-23 12:28 | 40.00420 | 20.53292 | 33962 ft | 464 kts | 322° |
| 2026-04-23 12:29 | 40.05489 | 20.48090 | 33956 ft | 463 kts | 315° |
| 2026-04-23 12:29 | 40.09807 | 20.41866 | 33954 ft | 462 kts | 306° |
| 2026-04-23 12:30 | 40.13566 | 20.35048 | 33963 ft | 463 kts | 305° |
| 2026-04-23 12:30 | 40.16676 | 20.29346 | 33963 ft | 463 kts | 305° |
| 2026-04-23 12:31 | 40.20438 | 20.22481 | 33968 ft | 466 kts | 306° |
| 2026-04-23 12:31 | 40.24233 | 20.15584 | 33968 ft | 468 kts | 306° |
| 2026-04-23 12:32 | 40.28043 | 20.08654 | 33967 ft | 470 kts | 306° |
| 2026-04-23 12:32 | 40.31864 | 20.01688 | 33967 ft | 471 kts | 306° |
| 2026-04-23 12:33 | 40.35687 | 19.94701 | 33969 ft | 472 kts | 306° |
| 2026-04-23 12:33 | 40.39508 | 19.87702 | 33976 ft | 472 kts | 306° |
| 2026-04-23 12:34 | 40.43319 | 19.80704 | 33978 ft | 471 kts | 306° |
| 2026-04-23 12:34 | 40.47120 | 19.73708 | 33976 ft | 471 kts | 306° |
| 2026-04-23 12:35 | 40.50920 | 19.66700 | 33980 ft | 471 kts | 307° |
| 2026-04-23 12:35 | 40.54722 | 19.59673 | 33999 ft | 472 kts | 307° |
| 2026-04-23 12:36 | 40.58528 | 19.52621 | 34007 ft | 474 kts | 306° |
| 2026-04-23 12:36 | 40.62342 | 19.45540 | 33997 ft | 475 kts | 307° |
| 2026-04-23 12:37 | 40.66157 | 19.38443 | 34023 ft | 474 kts | 308° |
| 2026-04-23 12:37 | 40.69960 | 19.31347 | 34024 ft | 474 kts | 307° |
| 2026-04-23 12:38 | 40.73761 | 19.24238 | 34026 ft | 475 kts | 307° |
| 2026-04-23 12:38 | 40.77561 | 19.17118 | 34034 ft | 475 kts | 307° |
| 2026-04-23 12:39 | 40.81372 | 19.09959 | 34028 ft | 478 kts | 308° |
| 2026-04-23 12:39 | 40.85205 | 19.02746 | 34050 ft | 482 kts | 308° |
| 2026-04-23 12:40 | 40.87133 | 18.99109 | 34220 ft | 484 kts | 308° |
| 2026-04-23 12:40 | 40.89059 | 18.95469 | 34587 ft | 482 kts | 307° |
| 2026-04-23 12:40 | 40.90979 | 18.91850 | 35006 ft | 479 kts | 307° |
| 2026-04-23 12:40 | 40.92898 | 18.88261 | 35386 ft | 477 kts | 308° |
| 2026-04-23 12:41 | 40.94806 | 18.84700 | 35870 ft | 472 kts | 308° |
| 2026-04-23 12:41 | 40.96701 | 18.81159 | 36088 ft | 474 kts | 308° |
| 2026-04-23 12:41 | 41.00524 | 18.73996 | 36049 ft | 477 kts | 307° |
| 2026-04-23 12:42 | 41.04348 | 18.66802 | 36075 ft | 477 kts | 307° |
| 2026-04-23 12:42 | 41.08160 | 18.59610 | 36066 ft | 476 kts | 307° |
| 2026-04-23 12:43 | 41.11937 | 18.52467 | 36081 ft | 477 kts | 307° |
| 2026-04-23 12:43 | 41.15744 | 18.45254 | 36083 ft | 478 kts | 307° |
| 2026-04-23 12:44 | 41.19558 | 18.38009 | 36077 ft | 479 kts | 308° |
| 2026-04-23 12:44 | 41.23376 | 18.30740 | 36091 ft | 481 kts | 308° |
| 2026-04-23 12:45 | 41.27205 | 18.23431 | 36088 ft | 482 kts | 308° |
| 2026-04-23 12:45 | 41.31041 | 18.16094 | 36088 ft | 484 kts | 307° |
| 2026-04-23 12:46 | 41.34877 | 18.08737 | 36090 ft | 484 kts | 307° |
| 2026-04-23 12:46 | 41.38711 | 18.01366 | 36095 ft | 484 kts | 307° |
| 2026-04-23 12:47 | 41.42543 | 17.93981 | 36095 ft | 484 kts | 307° |
| 2026-04-23 12:47 | 41.46366 | 17.86595 | 36103 ft | 484 kts | 307° |
| 2026-04-23 12:48 | 41.50181 | 17.79209 | 36102 ft | 483 kts | 307° |
| 2026-04-23 12:48 | 41.53986 | 17.71822 | 36095 ft | 483 kts | 307° |
| 2026-04-23 12:49 | 41.57784 | 17.64432 | 36106 ft | 482 kts | 307° |
| 2026-04-23 12:49 | 41.61572 | 17.57046 | 36108 ft | 482 kts | 307° |
| 2026-04-23 12:50 | 41.65340 | 17.49630 | 36109 ft | 482 kts | 307° |
| 2026-04-23 12:50 | 41.69085 | 17.42191 | 36095 ft | 483 kts | 307° |
| 2026-04-23 12:51 | 41.72834 | 17.34727 | 36104 ft | 484 kts | 307° |
| 2026-04-23 12:51 | 41.76602 | 17.27217 | 36124 ft | 487 kts | 307° |
| 2026-04-23 12:52 | 41.80356 | 17.19718 | 36123 ft | 489 kts | 307° |
| 2026-04-23 12:52 | 41.84145 | 17.12129 | 36126 ft | 491 kts | 307° |
| 2026-04-23 12:53 | 41.87941 | 17.04508 | 36116 ft | 492 kts | 307° |
| 2026-04-23 12:53 | 41.91735 | 16.96871 | 36130 ft | 492 kts | 307° |
| 2026-04-23 12:54 | 41.95523 | 16.89226 | 36130 ft | 492 kts | 307° |
| 2026-04-23 12:54 | 41.99303 | 16.81577 | 36120 ft | 491 kts | 308° |
| 2026-04-23 12:55 | 42.03080 | 16.73918 | 36136 ft | 491 kts | 308° |
| 2026-04-23 12:55 | 42.06851 | 16.66252 | 36127 ft | 491 kts | 308° |
| 2026-04-23 12:56 | 42.10619 | 16.58570 | 36145 ft | 492 kts | 308° |
| 2026-04-23 12:56 | 42.14383 | 16.50878 | 36145 ft | 492 kts | 307° |
| 2026-04-23 12:57 | 42.18143 | 16.43172 | 36147 ft | 492 kts | 307° |
| 2026-04-23 12:57 | 42.21901 | 16.35453 | 36147 ft | 492 kts | 307° |
| 2026-04-23 12:58 | 42.25652 | 16.27728 | 36158 ft | 492 kts | 307° |
| 2026-04-23 12:58 | 42.29397 | 16.19997 | 36151 ft | 492 kts | 307° |
| 2026-04-23 12:59 | 42.33138 | 16.12252 | 36150 ft | 492 kts | 307° |
| 2026-04-23 12:59 | 42.36877 | 16.04492 | 36157 ft | 493 kts | 307° |
| 2026-04-23 13:00 | 42.40613 | 15.96718 | 36139 ft | 493 kts | 307° |
| 2026-04-23 13:00 | 42.44347 | 15.88926 | 36166 ft | 493 kts | 307° |
| 2026-04-23 13:01 | 42.48079 | 15.81122 | 36168 ft | 494 kts | 307° |
| 2026-04-23 13:01 | 42.52109 | 15.73722 | 36166 ft | 488 kts | 316° |
| 2026-04-23 13:02 | 42.56650 | 15.66858 | 36160 ft | 488 kts | 317° |
| 2026-04-23 13:02 | 42.61197 | 15.60013 | 36164 ft | 488 kts | 316° |
| 2026-04-23 13:03 | 42.65729 | 15.53108 | 36172 ft | 489 kts | 316° |
| 2026-04-23 13:03 | 42.70246 | 15.46167 | 36177 ft | 490 kts | 316° |
| 2026-04-23 13:04 | 42.74753 | 15.39215 | 36177 ft | 490 kts | 316° |
| 2026-04-23 13:04 | 42.79263 | 15.32246 | 36185 ft | 490 kts | 316° |
| 2026-04-23 13:05 | 42.83737 | 15.25318 | 36178 ft | 490 kts | 316° |
| 2026-04-23 13:05 | 42.88236 | 15.18335 | 36184 ft | 490 kts | 316° |
| 2026-04-23 13:06 | 42.94974 | 15.07846 | 36184 ft | 489 kts | 316° |
| 2026-04-23 13:07 | 42.99432 | 15.00886 | 36187 ft | 489 kts | 316° |
| 2026-04-23 13:07 | 43.03898 | 14.93894 | 36189 ft | 488 kts | 316° |
| 2026-04-23 13:08 | 43.08356 | 14.86900 | 36191 ft | 487 kts | 316° |
| 2026-04-23 13:08 | 43.12806 | 14.79902 | 36190 ft | 487 kts | 316° |
| 2026-04-23 13:09 | 43.17243 | 14.72908 | 36190 ft | 486 kts | 316° |
| 2026-04-23 13:09 | 43.21674 | 14.65905 | 36195 ft | 486 kts | 316° |
| 2026-04-23 13:10 | 43.26105 | 14.58886 | 36197 ft | 486 kts | 315° |
| 2026-04-23 13:10 | 43.30531 | 14.51858 | 36177 ft | 486 kts | 315° |
| 2026-04-23 13:11 | 43.34922 | 14.44867 | 36204 ft | 486 kts | 315° |
| 2026-04-23 13:11 | 43.39336 | 14.37822 | 36205 ft | 486 kts | 315° |
| 2026-04-23 13:12 | 43.43750 | 14.30762 | 36207 ft | 486 kts | 315° |
| 2026-04-23 13:12 | 43.48200 | 14.23729 | 36204 ft | 485 kts | 318° |
| 2026-04-23 13:13 | 43.53213 | 14.17628 | 36215 ft | 479 kts | 326° |
| 2026-04-23 13:13 | 43.58401 | 14.11954 | 36202 ft | 476 kts | 330° |
| 2026-04-23 13:14 | 43.63935 | 14.06989 | 36215 ft | 474 kts | 332° |
| 2026-04-23 13:14 | 43.69514 | 14.02080 | 36213 ft | 475 kts | 332° |
| 2026-04-23 13:15 | 43.75050 | 13.97151 | 36212 ft | 476 kts | 332° |
| 2026-04-23 13:15 | 43.79702 | 13.92973 | 36202 ft | 476 kts | 331° |
| 2026-04-23 13:16 | 43.86158 | 13.87152 | 36218 ft | 476 kts | 331° |
| 2026-04-23 13:16 | 43.91716 | 13.82131 | 36210 ft | 477 kts | 331° |
| 2026-04-23 13:17 | 43.97273 | 13.77102 | 36222 ft | 477 kts | 331° |
| 2026-04-23 13:17 | 44.02834 | 13.72058 | 36214 ft | 477 kts | 331° |
| 2026-04-23 13:18 | 44.07451 | 13.67861 | 36215 ft | 477 kts | 331° |
| 2026-04-23 13:18 | 44.13005 | 13.62801 | 36220 ft | 477 kts | 331° |
| 2026-04-23 13:19 | 44.18556 | 13.57724 | 36206 ft | 477 kts | 331° |
| 2026-04-23 13:19 | 44.24094 | 13.52643 | 36222 ft | 476 kts | 331° |
| 2026-04-23 13:20 | 44.29627 | 13.47554 | 36209 ft | 476 kts | 331° |
| 2026-04-23 13:20 | 44.35161 | 13.42454 | 36217 ft | 476 kts | 331° |
| 2026-04-23 13:21 | 44.40662 | 13.37375 | 36215 ft | 476 kts | 330° |
| 2026-04-23 13:21 | 44.46189 | 13.32258 | 36211 ft | 476 kts | 330° |
| 2026-04-23 13:22 | 44.51718 | 13.27128 | 36217 ft | 476 kts | 330° |
| 2026-04-23 13:22 | 44.57241 | 13.21991 | 36212 ft | 476 kts | 330° |
| 2026-04-23 13:23 | 44.62759 | 13.16848 | 36204 ft | 476 kts | 330° |
| 2026-04-23 13:23 | 44.68277 | 13.11692 | 36215 ft | 476 kts | 330° |
| 2026-04-23 13:24 | 44.73790 | 13.06529 | 36215 ft | 476 kts | 330° |
| 2026-04-23 13:24 | 44.79304 | 13.01353 | 36215 ft | 477 kts | 330° |
| 2026-04-23 13:25 | 44.84824 | 12.96158 | 36208 ft | 476 kts | 330° |
| 2026-04-23 13:25 | 44.90342 | 12.90954 | 36215 ft | 476 kts | 330° |
| 2026-04-23 13:26 | 44.95816 | 12.85779 | 36215 ft | 476 kts | 330° |
| 2026-04-23 13:26 | 45.01315 | 12.80558 | 36212 ft | 477 kts | 329° |
| 2026-04-23 13:27 | 45.06597 | 12.74809 | 36198 ft | 479 kts | 325° |
| 2026-04-23 13:27 | 45.11789 | 12.68868 | 36199 ft | 479 kts | 325° |
| 2026-04-23 13:28 | 45.16939 | 12.62974 | 36201 ft | 479 kts | 325° |
| 2026-04-23 13:28 | 45.22132 | 12.57055 | 36196 ft | 479 kts | 325° |
| 2026-04-23 13:29 | 45.27328 | 12.51136 | 36188 ft | 479 kts | 325° |
| 2026-04-23 13:29 | 45.32525 | 12.45202 | 36172 ft | 479 kts | 326° |
| 2026-04-23 13:30 | 45.37714 | 12.39261 | 36181 ft | 479 kts | 326° |
| 2026-04-23 13:30 | 45.42905 | 12.33303 | 36182 ft | 479 kts | 326° |
| 2026-04-23 13:31 | 45.48095 | 12.27331 | 36193 ft | 480 kts | 325° |
| 2026-04-23 13:31 | 45.53288 | 12.21340 | 36193 ft | 480 kts | 325° |
| 2026-04-23 13:32 | 45.58447 | 12.15374 | 36175 ft | 480 kts | 325° |
| 2026-04-23 13:32 | 45.63634 | 12.09362 | 36186 ft | 480 kts | 325° |
| 2026-04-23 13:33 | 45.68820 | 12.03336 | 36185 ft | 480 kts | 325° |
| 2026-04-23 13:33 | 45.73984 | 11.97320 | 36201 ft | 481 kts | 325° |
| 2026-04-23 13:34 | 45.79168 | 11.91266 | 36205 ft | 480 kts | 325° |
| 2026-04-23 13:34 | 45.84346 | 11.85204 | 36202 ft | 481 kts | 325° |
| 2026-04-23 13:35 | 45.89529 | 11.79121 | 36203 ft | 481 kts | 325° |
| 2026-04-23 13:35 | 45.94717 | 11.73016 | 36202 ft | 482 kts | 325° |
| 2026-04-23 13:36 | 45.99908 | 11.66894 | 36177 ft | 481 kts | 324° |
| 2026-04-23 13:36 | 46.05040 | 11.60828 | 36216 ft | 480 kts | 325° |
| 2026-04-23 13:37 | 46.10200 | 11.54709 | 36187 ft | 481 kts | 325° |
| 2026-04-23 13:37 | 46.15362 | 11.48574 | 36200 ft | 481 kts | 325° |
| 2026-04-23 13:38 | 46.20521 | 11.42428 | 36200 ft | 481 kts | 325° |
| 2026-04-23 13:38 | 46.26025 | 11.37111 | 36197 ft | 472 kts | 340° |
| 2026-04-23 13:39 | 46.32220 | 11.34426 | 36191 ft | 461 kts | 355° |
| 2026-04-23 13:39 | 46.38576 | 11.33148 | 36196 ft | 461 kts | 356° |
| 2026-04-23 13:40 | 46.44937 | 11.31870 | 36135 ft | 462 kts | 356° |
| 2026-04-23 13:40 | 46.51263 | 11.30528 | 36154 ft | 462 kts | 355° |
| 2026-04-23 13:41 | 46.57631 | 11.29145 | 36165 ft | 463 kts | 355° |
| 2026-04-23 13:41 | 46.64016 | 11.27754 | 36163 ft | 463 kts | 355° |
| 2026-04-23 13:42 | 46.70402 | 11.26362 | 36183 ft | 464 kts | 355° |
| 2026-04-23 13:42 | 46.76764 | 11.24972 | 36215 ft | 462 kts | 355° |
| 2026-04-23 13:43 | 46.83106 | 11.23579 | 36244 ft | 461 kts | 355° |
| 2026-04-23 13:43 | 46.89469 | 11.22179 | 36240 ft | 463 kts | 354° |
| 2026-04-23 13:44 | 46.95653 | 11.19446 | 36265 ft | 472 kts | 341° |
| 2026-04-23 13:44 | 47.01483 | 11.14723 | 36261 ft | 479 kts | 331° |
| 2026-04-23 13:45 | 47.07034 | 11.09421 | 36247 ft | 479 kts | 332° |
| 2026-04-23 13:45 | 47.12485 | 11.03613 | 36264 ft | 483 kts | 325° |
| 2026-04-23 13:46 | 47.17644 | 10.97353 | 36263 ft | 483 kts | 324° |
| 2026-04-23 13:46 | 47.22834 | 10.91052 | 36266 ft | 482 kts | 325° |
| 2026-04-23 13:47 | 47.28022 | 10.84810 | 36253 ft | 481 kts | 325° |
| 2026-04-23 13:47 | 47.33215 | 10.78568 | 36259 ft | 481 kts | 325° |
| 2026-04-23 13:48 | 47.38404 | 10.72311 | 36258 ft | 481 kts | 326° |
| 2026-04-23 13:48 | 47.43768 | 10.66561 | 36263 ft | 479 kts | 330° |
| 2026-04-23 13:49 | 47.49317 | 10.61087 | 36273 ft | 480 kts | 330° |
| 2026-04-23 13:49 | 47.54842 | 10.55474 | 36274 ft | 482 kts | 329° |
| 2026-04-23 13:50 | 47.60355 | 10.49785 | 36286 ft | 484 kts | 329° |
| 2026-04-23 13:50 | 47.65871 | 10.44066 | 36300 ft | 485 kts | 329° |
| 2026-04-23 13:51 | 47.71406 | 10.38324 | 36299 ft | 485 kts | 329° |
| 2026-04-23 13:51 | 47.76864 | 10.32378 | 36298 ft | 488 kts | 325° |
| 2026-04-23 13:52 | 47.82115 | 10.25976 | 36311 ft | 489 kts | 324° |
| 2026-04-23 13:52 | 47.87346 | 10.19510 | 36319 ft | 488 kts | 324° |
| 2026-04-23 13:53 | 47.92590 | 10.13062 | 36313 ft | 489 kts | 324° |
| 2026-04-23 13:53 | 47.97846 | 10.06612 | 36322 ft | 489 kts | 324° |
| 2026-04-23 13:54 | 48.03102 | 10.00150 | 36312 ft | 489 kts | 324° |
| 2026-04-23 13:54 | 48.08324 | 9.93710 | 36318 ft | 489 kts | 324° |
| 2026-04-23 13:55 | 48.13572 | 9.87219 | 36323 ft | 490 kts | 324° |
| 2026-04-23 13:55 | 48.18824 | 9.80704 | 36315 ft | 490 kts | 324° |
| 2026-04-23 13:56 | 48.24079 | 9.74167 | 36309 ft | 491 kts | 324° |
| 2026-04-23 13:56 | 48.29200 | 9.67780 | 36312 ft | 491 kts | 324° |
| 2026-04-23 13:57 | 48.34450 | 9.61213 | 36314 ft | 492 kts | 323° |
| 2026-04-23 13:57 | 48.39671 | 9.54543 | 36313 ft | 492 kts | 323° |
| 2026-04-23 13:58 | 48.44869 | 9.47825 | 36303 ft | 493 kts | 323° |
| 2026-04-23 13:58 | 48.50076 | 9.41096 | 36320 ft | 493 kts | 323° |
| 2026-04-23 13:59 | 48.55255 | 9.34397 | 36318 ft | 494 kts | 323° |
| 2026-04-23 13:59 | 48.60474 | 9.27628 | 36324 ft | 495 kts | 323° |
| 2026-04-23 14:00 | 48.64816 | 9.21990 | 36316 ft | 495 kts | 323° |
| 2026-04-23 14:00 | 48.70927 | 9.14060 | 36312 ft | 496 kts | 322° |
| 2026-04-23 14:01 | 48.76164 | 9.07248 | 36321 ft | 496 kts | 322° |
| 2026-04-23 14:01 | 48.81398 | 9.00414 | 36320 ft | 497 kts | 322° |
| 2026-04-23 14:02 | 48.86632 | 8.93559 | 36321 ft | 497 kts | 322° |
| 2026-04-23 14:02 | 48.91872 | 8.86676 | 36342 ft | 498 kts | 322° |
| 2026-04-23 14:03 | 48.97103 | 8.79784 | 36315 ft | 498 kts | 322° |
| 2026-04-23 14:03 | 49.02338 | 8.72868 | 36337 ft | 498 kts | 322° |
| 2026-04-23 14:04 | 49.07570 | 8.65937 | 36312 ft | 499 kts | 322° |
| 2026-04-23 14:04 | 49.12801 | 8.58985 | 36331 ft | 499 kts | 322° |
| 2026-04-23 14:05 | 49.17148 | 8.53194 | 36332 ft | 499 kts | 322° |
| 2026-04-23 14:05 | 49.22374 | 8.46213 | 36311 ft | 499 kts | 321° |
| 2026-04-23 14:06 | 49.27595 | 8.39217 | 36330 ft | 499 kts | 321° |
| 2026-04-23 14:06 | 49.32810 | 8.32209 | 36326 ft | 499 kts | 321° |
| 2026-04-23 14:07 | 49.38028 | 8.25178 | 36328 ft | 499 kts | 321° |
| 2026-04-23 14:07 | 49.45847 | 8.14602 | 36331 ft | 499 kts | 321° |
| 2026-04-23 14:08 | 49.51045 | 8.07543 | 36320 ft | 498 kts | 321° |
| 2026-04-23 14:08 | 49.56243 | 8.00467 | 36327 ft | 499 kts | 321° |
| 2026-04-23 14:09 | 49.61409 | 7.93413 | 36325 ft | 499 kts | 321° |
| 2026-04-23 14:09 | 49.66639 | 7.86248 | 36322 ft | 500 kts | 321° |
| 2026-04-23 14:10 | 49.71808 | 7.79148 | 36322 ft | 500 kts | 321° |
| 2026-04-23 14:10 | 49.77002 | 7.71988 | 36333 ft | 500 kts | 321° |
| 2026-04-23 14:11 | 49.82193 | 7.64816 | 36334 ft | 501 kts | 320° |
| 2026-04-23 14:11 | 49.87393 | 7.57606 | 36344 ft | 501 kts | 320° |
| 2026-04-23 14:12 | 49.92593 | 7.50375 | 36339 ft | 502 kts | 320° |
| 2026-04-23 14:12 | 49.97794 | 7.43120 | 36338 ft | 503 kts | 320° |
| 2026-04-23 14:13 | 50.02992 | 7.35850 | 36347 ft | 503 kts | 320° |
| 2026-04-23 14:13 | 50.05404 | 7.31910 | 36331 ft | 504 kts | 307° |
| 2026-04-23 14:13 | 50.07129 | 7.27174 | 36362 ft | 505 kts | 292° |
| 2026-04-23 14:14 | 50.08173 | 7.21952 | 36348 ft | 505 kts | 280° |
| 2026-04-23 14:14 | 50.08507 | 7.16534 | 36333 ft | 504 kts | 271° |
| 2026-04-23 14:14 | 50.08803 | 7.05555 | 36370 ft | 509 kts | 272° |
| 2026-04-23 14:15 | 50.09224 | 6.94579 | 36336 ft | 504 kts | 272° |
| 2026-04-23 14:15 | 50.09448 | 6.89164 | 35899 ft | 501 kts | 272° |
| 2026-04-23 14:15 | 50.09538 | 6.83788 | 35192 ft | 501 kts | 267° |
| 2026-04-23 14:16 | 50.09429 | 6.78338 | 34426 ft | 502 kts | 265° |
| 2026-04-23 14:16 | 50.09275 | 6.72886 | 33513 ft | 505 kts | 265° |
| 2026-04-23 14:16 | 50.09127 | 6.67404 | 32605 ft | 507 kts | 266° |
| 2026-04-23 14:16 | 50.08992 | 6.61897 | 31696 ft | 509 kts | 266° |
| 2026-04-23 14:17 | 50.08865 | 6.56379 | 30791 ft | 512 kts | 266° |
| 2026-04-23 14:17 | 50.08741 | 6.50857 | 30128 ft | 507 kts | 266° |
| 2026-04-23 14:17 | 50.08615 | 6.45386 | 29440 ft | 503 kts | 266° |
| 2026-04-23 14:17 | 50.08485 | 6.39971 | 28838 ft | 497 kts | 266° |
| 2026-04-23 14:18 | 50.08370 | 6.34692 | 28245 ft | 492 kts | 266° |
| 2026-04-23 14:18 | 50.08267 | 6.29326 | 27637 ft | 487 kts | 267° |
| 2026-04-23 14:18 | 50.08165 | 6.24154 | 27056 ft | 482 kts | 267° |
| 2026-04-23 14:18 | 50.08050 | 6.18960 | 26491 ft | 477 kts | 266° |
| 2026-04-23 14:19 | 50.07886 | 6.13821 | 25920 ft | 473 kts | 266° |
| 2026-04-23 14:19 | 50.07823 | 6.08748 | 25290 ft | 466 kts | 274° |
| 2026-04-23 14:19 | 50.08628 | 6.03888 | 24627 ft | 465 kts | 296° |
| 2026-04-23 14:19 | 50.10476 | 5.99825 | 24085 ft | 457 kts | 318° |
| 2026-04-23 14:20 | 50.13003 | 5.96902 | 23442 ft | 450 kts | 332° |
| 2026-04-23 14:20 | 50.15807 | 5.94798 | 22848 ft | 444 kts | 341° |
| 2026-04-23 14:20 | 50.18727 | 5.93288 | 22190 ft | 440 kts | 345° |
| 2026-04-23 14:20 | 50.21651 | 5.91972 | 21624 ft | 436 kts | 345° |
| 2026-04-23 14:21 | 50.24542 | 5.90616 | 21075 ft | 432 kts | 344° |
| 2026-04-23 14:21 | 50.27389 | 5.89161 | 20535 ft | 428 kts | 343° |
| 2026-04-23 14:21 | 50.30184 | 5.87630 | 20003 ft | 424 kts | 341° |
| 2026-04-23 14:21 | 50.32943 | 5.86057 | 19481 ft | 420 kts | 341° |
| 2026-04-23 14:22 | 50.35670 | 5.84471 | 18959 ft | 416 kts | 340° |
| 2026-04-23 14:22 | 50.38372 | 5.82887 | 18405 ft | 413 kts | 341° |
| 2026-04-23 14:22 | 50.41053 | 5.81313 | 17827 ft | 409 kts | 341° |
| 2026-04-23 14:22 | 50.43707 | 5.79757 | 17272 ft | 405 kts | 341° |
| 2026-04-23 14:23 | 50.46307 | 5.78234 | 16754 ft | 401 kts | 340° |
| 2026-04-23 14:23 | 50.48912 | 5.76708 | 16222 ft | 398 kts | 340° |
| 2026-04-23 14:23 | 50.51496 | 5.75193 | 15709 ft | 395 kts | 340° |
| 2026-04-23 14:23 | 50.54062 | 5.73687 | 15192 ft | 391 kts | 340° |
| 2026-04-23 14:24 | 50.56543 | 5.72065 | 14688 ft | 383 kts | 331° |
| 2026-04-23 14:24 | 50.58614 | 5.69456 | 14210 ft | 382 kts | 314° |
| 2026-04-23 14:24 | 50.60117 | 5.66037 | 13745 ft | 380 kts | 298° |
| 2026-04-23 14:24 | 50.61177 | 5.62229 | 13246 ft | 378 kts | 294° |
| 2026-04-23 14:25 | 50.62175 | 5.58521 | 12719 ft | 357 kts | 295° |
| 2026-04-23 14:25 | 50.63137 | 5.55047 | 12291 ft | 336 kts | 295° |
| 2026-04-23 14:25 | 50.64058 | 5.51778 | 11859 ft | 319 kts | 296° |
| 2026-04-23 14:25 | 50.64908 | 5.48621 | 11454 ft | 309 kts | 289° |
| 2026-04-23 14:26 | 50.65102 | 5.45272 | 11079 ft | 310 kts | 263° |
| 2026-04-23 14:26 | 50.64590 | 5.42014 | 10708 ft | 304 kts | 256° |
| 2026-04-23 14:26 | 50.64016 | 5.38802 | 10328 ft | 303 kts | 256° |
| 2026-04-23 14:26 | 50.63456 | 5.35641 | 9906 ft | 302 kts | 256° |
| 2026-04-23 14:27 | 50.62902 | 5.32486 | 9485 ft | 294 kts | 256° |
| 2026-04-23 14:27 | 50.62370 | 5.29450 | 9085 ft | 283 kts | 256° |
| 2026-04-23 14:27 | 50.61849 | 5.26461 | 8648 ft | 286 kts | 256° |
| 2026-04-23 14:27 | 50.61318 | 5.23396 | 8125 ft | 288 kts | 256° |
| 2026-04-23 14:28 | 50.60800 | 5.20425 | 7692 ft | 277 kts | 256° |
| 2026-04-23 14:28 | 50.60273 | 5.17520 | 7145 ft | 274 kts | 250° |
| 2026-04-23 14:28 | 50.59241 | 5.15039 | 6630 ft | 273 kts | 224° |
| 2026-04-23 14:28 | 50.57835 | 5.13030 | 6107 ft | 272 kts | 219° |
| 2026-04-23 14:29 | 50.56168 | 5.11694 | 5541 ft | 273 kts | 188° |
| 2026-04-23 14:29 | 50.54313 | 5.11867 | 5184 ft | 266 kts | 159° |
| 2026-04-23 14:29 | 50.52712 | 5.13218 | 4752 ft | 258 kts | 136° |
| 2026-04-23 14:29 | 50.51462 | 5.15131 | 4359 ft | 253 kts | 131° |
| 2026-04-23 14:30 | 50.50225 | 5.17087 | 4049 ft | 248 kts | 130° |
| 2026-04-23 14:30 | 50.49339 | 5.19285 | 3704 ft | 233 kts | 98° |
| 2026-04-23 14:30 | 50.49505 | 5.21655 | 3470 ft | 216 kts | 60° |
| 2026-04-23 14:30 | 50.50443 | 5.23379 | 3263 ft | 202 kts | 42° |
| 2026-04-23 14:31 | 50.51424 | 5.24904 | 3038 ft | 190 kts | 45° |
| 2026-04-23 14:31 | 50.52334 | 5.26363 | 3027 ft | 185 kts | 44° |
| 2026-04-23 14:31 | 50.53221 | 5.27778 | 2982 ft | 180 kts | 44° |
| 2026-04-23 14:31 | 50.54083 | 5.29164 | 2976 ft | 177 kts | 46° |
| 2026-04-23 14:32 | 50.54911 | 5.30475 | 2916 ft | 166 kts | 43° |
| 2026-04-23 14:32 | 50.55740 | 5.31769 | 2719 ft | 163 kts | 44° |
| 2026-04-23 14:32 | 50.56529 | 5.33003 | 2454 ft | 155 kts | 44° |
| 2026-04-23 14:32 | 50.57258 | 5.34150 | 2285 ft | 141 kts | 45° |
| 2026-04-23 14:33 | 50.57928 | 5.35217 | 2064 ft | 136 kts | 43° |
| 2026-04-23 14:33 | 50.58610 | 5.36295 | 1880 ft | 144 kts | 43° |
| 2026-04-23 14:33 | 50.59307 | 5.37397 | 1660 ft | 141 kts | 44° |
| 2026-04-23 14:33 | 50.60006 | 5.38497 | 1496 ft | 142 kts | 44° |
| 2026-04-23 14:34 | 50.60702 | 5.39615 | 1282 ft | 139 kts | 44° |
| 2026-04-23 14:34 | 50.61361 | 5.40642 | 1051 ft | 131 kts | 44° |
| 2026-04-23 14:34 | 50.62028 | 5.41705 | 949 ft | 140 kts | 42° |
| 2026-04-23 14:34 | 50.62716 | 5.42776 | 749 ft | 140 kts | 45° |
| 2026-04-23 14:35 | 50.63385 | 5.43856 | 660 ft | 128 kts | 44° |
| 2026-04-23 14:35 | 50.63941 | 5.44728 | 629 ft | 90 kts | 45° |
| 2026-04-23 14:35 | 50.64256 | 5.45225 | 602 ft | 38 kts | 45° |
| 2026-04-23 14:35 | 50.64379 | 5.45412 | 620 ft | 20 kts | 36° |
| 2026-04-23 14:36 | 50.64516 | 5.45441 | 620 ft | 20 kts | 359° |
| 2026-04-23 14:36 | 50.64600 | 5.45358 | 619 ft | 12 kts | 258° |
| 2026-04-23 14:36 | 50.64546 | 5.45259 | 624 ft | 12 kts | 224° |
| 2026-04-23 14:36 | 50.64478 | 5.45156 | 623 ft | 17 kts | 224° |
| 2026-04-23 14:37 | 50.64375 | 5.44992 | 620 ft | 26 kts | 226° |
| 2026-04-23 14:37 | 50.64228 | 5.44756 | 626 ft | 30 kts | 225° |
| 2026-04-23 14:37 | 50.64082 | 5.44522 | 635 ft | 30 kts | 225° |
| 2026-04-23 14:37 | 50.63934 | 5.44289 | 642 ft | 30 kts | 225° |
| 2026-04-23 14:38 | 50.63786 | 5.44056 | 641 ft | 30 kts | 225° |
| 2026-04-23 14:38 | 50.63640 | 5.43822 | 640 ft | 28 kts | 225° |
| 2026-04-23 14:38 | 50.63557 | 5.43688 | 644 ft | 12 kts | 232° |
| 2026-04-23 14:38 | 50.63579 | 5.43573 | 644 ft | 13 kts | 317° |
| 2026-04-23 14:39 | 50.63642 | 5.43479 | 647 ft | 12 kts | 323° |
| 2026-04-23 14:39 | 50.63732 | 5.43536 | 646 ft | 19 kts | 44° |
| 2026-04-23 14:39 | 50.63841 | 5.43643 | 650 ft | 12 kts | 39° |
| 2026-04-23 14:39 | 50.63901 | 5.43727 | 645 ft | 10 kts | 21° |
| 2026-04-23 14:40 | 50.63951 | 5.43678 | 645 ft | 9 kts | 315° |
| 2026-04-23 14:40 | 50.63978 | 5.43636 | 648 ft | 3 kts | 315° |
| 2026-04-23 14:40 | 50.63979 | 5.43635 | 648 ft | 0 kts | 315° |